PWSweather.com
Personal Weather Stations
Station Observations
HVALPSUND
Hvalpsund, FarsoeDK 9640

HvalpsundFarsoeDK 9640

Lat: 56.705311, Lon: 9.203638

Elevation: 5

Station Type: Vantage Pro2

http://hvalpsundvejr.dk

Latest ConditionsUpdated 10:42:00 AM GMT+01:01 Monday, Jul 23, 2018
Currently Today's Max Today's Min Today's Average
Temperature 70.7°F21.5°C 70.7°F21.5°C 63.6°F17.6°C 65.7°F18.7°C
Dew Point 62.0°F16.7°C 62.5°F16.9°C 59.0°F15.0°C 60.2°F15.7°C
Winds 13.5 mph W21.7 kmh W 18.5 mph -29.8 kmh - - 12.6 mph 20.3 kmh
Wind Gusts 16.0 mph25.7 kmh 22.0 mph35.4 kmh - -
Humidity 74% 87% 74% 83%
Pressure 29.93 in1013.5 mb 29.93 in1013.5 mb 29.88 in1011.9 mb -
Hour Temp Dew Point Humidity Winds Wind Gusts Pressure Precip Precip Rate Daily Precip Total
10:42 AM 70.7°F21.5°C 62.0°F16.7°C 74% 13.5 mph W21.7 kmh W 16.0 mph25.7 kmh 29.93 in1013.5 mb 0.00 in0.0 mm 0.00 in0.0 mm 0.00 in0.0 mm
10:41 AM 70.6°F21.4°C 61.9°F16.6°C 74% 11.0 mph W17.7 kmh W 14.0 mph22.5 kmh 29.93 in1013.5 mb 0.00 in0.0 mm 0.00 in0.0 mm 0.00 in0.0 mm
10:40 AM 70.5°F21.4°C 61.8°F16.6°C 74% 10.8 mph W17.4 kmh W 14.0 mph22.5 kmh 29.93 in1013.5 mb 0.00 in0.0 mm 0.00 in0.0 mm 0.00 in0.0 mm
10:39 AM 70.5°F21.4°C 61.8°F16.6°C 74% 12.0 mph W19.3 kmh W 15.0 mph24.1 kmh 29.93 in1013.5 mb 0.00 in0.0 mm 0.00 in0.0 mm 0.00 in0.0 mm
10:38 AM 70.4°F21.3°C 61.7°F16.5°C 74% 11.2 mph W18.0 kmh W 15.0 mph24.1 kmh 29.93 in1013.5 mb 0.00 in0.0 mm 0.00 in0.0 mm 0.00 in0.0 mm
10:37 AM 70.4°F21.3°C 61.7°F16.5°C 74% 12.4 mph W20.0 kmh W 15.0 mph24.1 kmh 29.93 in1013.5 mb 0.00 in0.0 mm 0.00 in0.0 mm 0.00 in0.0 mm
10:36 AM 70.3°F21.3°C 62.0°F16.7°C 75% 13.1 mph W21.1 kmh W 16.0 mph25.7 kmh 29.93 in1013.5 mb 0.00 in0.0 mm 0.00 in0.0 mm 0.00 in0.0 mm
10:35 AM 70.3°F21.3°C 62.4°F16.9°C 76% 12.6 mph WSW20.3 kmh WSW 16.0 mph25.7 kmh 29.93 in1013.5 mb 0.00 in0.0 mm 0.00 in0.0 mm 0.00 in0.0 mm
10:34 AM 70.3°F21.3°C 62.0°F16.7°C 75% 11.8 mph W19.0 kmh W 16.0 mph25.7 kmh 29.93 in1013.5 mb 0.00 in0.0 mm 0.00 in0.0 mm 0.00 in0.0 mm
10:33 AM 70.3°F21.3°C 62.0°F16.7°C 75% 13.7 mph WSW22.0 kmh WSW 16.0 mph25.7 kmh 29.93 in1013.5 mb 0.00 in0.0 mm 0.00 in0.0 mm 0.00 in0.0 mm
10:32 AM 70.3°F21.3°C 62.0°F16.7°C 75% 12.2 mph WSW19.6 kmh WSW 16.0 mph25.7 kmh 29.93 in1013.5 mb 0.00 in0.0 mm 0.00 in0.0 mm 0.00 in0.0 mm
10:31 AM 70.4°F21.3°C 62.1°F16.7°C 75% 13.3 mph W21.4 kmh W 16.0 mph25.7 kmh 29.93 in1013.5 mb 0.00 in0.0 mm 0.00 in0.0 mm 0.00 in0.0 mm
10:30 AM 70.3°F21.3°C 62.4°F16.9°C 76% 12.6 mph W20.3 kmh W 20.0 mph32.2 kmh 29.93 in1013.5 mb 0.00 in0.0 mm 0.00 in0.0 mm 0.00 in0.0 mm
10:29 AM 70.3°F21.3°C 62.0°F16.7°C 75% 15.0 mph W24.1 kmh W 20.0 mph32.2 kmh 29.93 in1013.5 mb 0.00 in0.0 mm 0.00 in0.0 mm 0.00 in0.0 mm
10:28 AM 70.3°F21.3°C 62.0°F16.7°C 75% 13.5 mph WSW21.7 kmh WSW 16.0 mph25.7 kmh 29.93 in1013.5 mb 0.00 in0.0 mm 0.00 in0.0 mm 0.00 in0.0 mm
10:27 AM 70.2°F21.2°C 61.9°F16.6°C 75% 12.8 mph WSW20.6 kmh WSW 16.0 mph25.7 kmh 29.93 in1013.5 mb 0.00 in0.0 mm 0.00 in0.0 mm 0.00 in0.0 mm
10:26 AM 70.2°F21.2°C 61.9°F16.6°C 75% 13.9 mph WSW22.4 kmh WSW 17.0 mph27.4 kmh 29.93 in1013.5 mb 0.00 in0.0 mm 0.00 in0.0 mm 0.00 in0.0 mm
10:25 AM 70.2°F21.2°C 61.9°F16.6°C 75% 15.0 mph WSW24.1 kmh WSW 17.0 mph27.4 kmh 29.93 in1013.5 mb 0.00 in0.0 mm 0.00 in0.0 mm 0.00 in0.0 mm
10:24 AM 70.2°F21.2°C 62.3°F16.8°C 76% 14.1 mph WSW22.7 kmh WSW 17.0 mph27.4 kmh 29.93 in1013.5 mb 0.00 in0.0 mm 0.00 in0.0 mm 0.00 in0.0 mm
10:23 AM 70.1°F21.2°C 62.2°F16.8°C 76% 13.1 mph WSW21.1 kmh WSW 17.0 mph27.4 kmh 29.93 in1013.5 mb 0.00 in0.0 mm 0.00 in0.0 mm 0.00 in0.0 mm
10:22 AM 70.1°F21.2°C 61.8°F16.6°C 75% 15.0 mph WSW24.1 kmh WSW 20.0 mph32.2 kmh 29.93 in1013.5 mb 0.00 in0.0 mm 0.00 in0.0 mm 0.00 in0.0 mm
10:21 AM 70.1°F21.2°C 62.2°F16.8°C 76% 17.6 mph WSW28.3 kmh WSW 20.0 mph32.2 kmh 29.93 in1013.5 mb 0.00 in0.0 mm 0.00 in0.0 mm 0.00 in0.0 mm
10:20 AM 70.1°F21.2°C 62.2°F16.8°C 76% 15.3 mph WSW24.6 kmh WSW 19.0 mph30.6 kmh 29.93 in1013.5 mb 0.00 in0.0 mm 0.00 in0.0 mm 0.00 in0.0 mm
10:19 AM 70.1°F21.2°C 62.2°F16.8°C 76% 13.4 mph WSW21.6 kmh WSW 17.0 mph27.4 kmh 29.93 in1013.5 mb 0.00 in0.0 mm 0.00 in0.0 mm 0.00 in0.0 mm
10:18 AM 70.1°F21.2°C 62.2°F16.8°C 76% 11.4 mph WSW18.3 kmh WSW 16.0 mph25.7 kmh 29.93 in1013.5 mb 0.00 in0.0 mm 0.00 in0.0 mm 0.00 in0.0 mm
10:17 AM 70.1°F21.2°C 61.8°F16.6°C 75% 13.1 mph WSW21.1 kmh WSW 18.0 mph29.0 kmh 29.93 in1013.5 mb 0.00 in0.0 mm 0.00 in0.0 mm 0.00 in0.0 mm
10:16 AM 70.1°F21.2°C 61.8°F16.6°C 75% 14.2 mph W22.9 kmh W 18.0 mph29.0 kmh 29.93 in1013.5 mb 0.00 in0.0 mm 0.00 in0.0 mm 0.00 in0.0 mm
10:15 AM 70.1°F21.2°C 62.2°F16.8°C 76% 12.7 mph W20.4 kmh W 16.0 mph25.7 kmh 29.93 in1013.5 mb 0.00 in0.0 mm 0.00 in0.0 mm 0.00 in0.0 mm
10:14 AM 70.1°F21.2°C 62.2°F16.8°C 76% 12.3 mph WNW19.8 kmh WNW 14.0 mph22.5 kmh 29.93 in1013.5 mb 0.00 in0.0 mm 0.00 in0.0 mm 0.00 in0.0 mm
10:13 AM 70.1°F21.2°C 62.5°F16.9°C 77% 10.4 mph W16.7 kmh W 15.0 mph24.1 kmh 29.93 in1013.5 mb 0.00 in0.0 mm 0.00 in0.0 mm 0.00 in0.0 mm
10:12 AM 70.0°F21.1°C 62.4°F16.9°C 77% 13.1 mph W21.1 kmh W 15.0 mph24.1 kmh 29.93 in1013.5 mb 0.00 in0.0 mm 0.00 in0.0 mm 0.00 in0.0 mm
10:11 AM 69.9°F21.1°C 62.0°F16.7°C 76% 12.0 mph W19.3 kmh W 15.0 mph24.1 kmh 29.93 in1013.5 mb 0.00 in0.0 mm 0.00 in0.0 mm 0.00 in0.0 mm
10:10 AM 69.9°F21.1°C 62.0°F16.7°C 76% 12.1 mph WSW19.5 kmh WSW 18.0 mph29.0 kmh 29.93 in1013.5 mb 0.00 in0.0 mm 0.00 in0.0 mm 0.00 in0.0 mm
10:09 AM 69.9°F21.1°C 62.4°F16.9°C 77% 14.4 mph WSW23.2 kmh WSW 18.0 mph29.0 kmh 29.93 in1013.5 mb 0.00 in0.0 mm 0.00 in0.0 mm 0.00 in0.0 mm
10:08 AM 69.8°F21.0°C 62.3°F16.8°C 77% 12.6 mph W20.3 kmh W 17.0 mph27.4 kmh 29.93 in1013.5 mb 0.00 in0.0 mm 0.00 in0.0 mm 0.00 in0.0 mm
10:07 AM 69.7°F20.9°C 61.8°F16.6°C 76% 13.9 mph WSW22.4 kmh WSW 19.0 mph30.6 kmh 29.93 in1013.5 mb 0.00 in0.0 mm 0.00 in0.0 mm 0.00 in0.0 mm
10:06 AM 69.8°F21.0°C 61.9°F16.6°C 76% 15.5 mph W24.9 kmh W 19.0 mph30.6 kmh 29.93 in1013.5 mb 0.00 in0.0 mm 0.00 in0.0 mm 0.00 in0.0 mm
10:05 AM 69.7°F20.9°C 61.8°F16.6°C 76% 13.5 mph WSW21.7 kmh WSW 15.0 mph24.1 kmh 29.92 in1013.2 mb 0.00 in0.0 mm 0.00 in0.0 mm 0.00 in0.0 mm
10:04 AM 69.8°F21.0°C 61.9°F16.6°C 76% 13.6 mph WSW21.9 kmh WSW 16.0 mph25.7 kmh 29.92 in1013.2 mb 0.00 in0.0 mm 0.00 in0.0 mm 0.00 in0.0 mm
10:03 AM 69.8°F21.0°C 62.3°F16.8°C 77% 12.0 mph W19.3 kmh W 16.0 mph25.7 kmh 29.92 in1013.2 mb 0.00 in0.0 mm 0.00 in0.0 mm 0.00 in0.0 mm
10:02 AM 69.8°F21.0°C 62.3°F16.8°C 77% 10.8 mph W17.4 kmh W 16.0 mph25.7 kmh 29.92 in1013.2 mb 0.00 in0.0 mm 0.00 in0.0 mm 0.00 in0.0 mm
10:01 AM 69.7°F20.9°C 61.8°F16.6°C 76% 14.0 mph W22.5 kmh W 16.0 mph25.7 kmh 29.92 in1013.2 mb 0.00 in0.0 mm 0.00 in0.0 mm 0.00 in0.0 mm
10:00 AM 69.7°F20.9°C 61.8°F16.6°C 76% 14.0 mph W22.5 kmh W 17.0 mph27.4 kmh 29.92 in1013.2 mb 0.00 in0.0 mm 0.00 in0.0 mm 0.00 in0.0 mm
09:59 AM 69.7°F20.9°C 61.8°F16.6°C 76% 14.6 mph W23.5 kmh W 17.0 mph27.4 kmh 29.93 in1013.5 mb 0.00 in0.0 mm 0.00 in0.0 mm 0.00 in0.0 mm
09:58 AM 69.7°F20.9°C 61.8°F16.6°C 76% 13.5 mph W21.7 kmh W 16.0 mph25.7 kmh 29.93 in1013.5 mb 0.00 in0.0 mm 0.00 in0.0 mm 0.00 in0.0 mm
09:57 AM 69.7°F20.9°C 61.8°F16.6°C 76% 13.7 mph W22.0 kmh W 16.0 mph25.7 kmh 29.92 in1013.2 mb 0.00 in0.0 mm 0.00 in0.0 mm 0.00 in0.0 mm
09:56 AM 69.6°F20.9°C 62.1°F16.7°C 77% 11.7 mph W18.8 kmh W 18.0 mph29.0 kmh 29.92 in1013.2 mb 0.00 in0.0 mm 0.00 in0.0 mm 0.00 in0.0 mm
09:55 AM 69.5°F20.8°C 61.6°F16.4°C 76% 15.4 mph WNW24.8 kmh WNW 18.0 mph29.0 kmh 29.93 in1013.5 mb 0.00 in0.0 mm 0.00 in0.0 mm 0.00 in0.0 mm
09:54 AM 69.4°F20.8°C 61.5°F16.4°C 76% 14.7 mph W23.7 kmh W 17.0 mph27.4 kmh 29.92 in1013.2 mb 0.00 in0.0 mm 0.00 in0.0 mm 0.00 in0.0 mm
09:53 AM 69.4°F20.8°C 61.9°F16.6°C 77% 13.8 mph W22.2 kmh W 17.0 mph27.4 kmh 29.92 in1013.2 mb 0.00 in0.0 mm 0.00 in0.0 mm 0.00 in0.0 mm
09:52 AM 69.2°F20.7°C 61.7°F16.5°C 77% 13.2 mph WSW21.2 kmh WSW 17.0 mph27.4 kmh 29.92 in1013.2 mb 0.00 in0.0 mm 0.00 in0.0 mm 0.00 in0.0 mm
09:51 AM 69.2°F20.7°C 61.7°F16.5°C 77% 15.2 mph WSW24.5 kmh WSW 18.0 mph29.0 kmh 29.92 in1013.2 mb 0.00 in0.0 mm 0.00 in0.0 mm 0.00 in0.0 mm
09:50 AM 69.2°F20.7°C 61.7°F16.5°C 77% 14.3 mph WSW23.0 kmh WSW 18.0 mph29.0 kmh 29.92 in1013.2 mb 0.00 in0.0 mm 0.00 in0.0 mm 0.00 in0.0 mm
09:49 AM 69.2°F20.7°C 61.7°F16.5°C 77% 13.8 mph W22.2 kmh W 16.0 mph25.7 kmh 29.92 in1013.2 mb 0.00 in0.0 mm 0.00 in0.0 mm 0.00 in0.0 mm
09:48 AM 69.2°F20.7°C 61.7°F16.5°C 77% 13.0 mph W20.9 kmh W 18.0 mph29.0 kmh 29.92 in1013.2 mb 0.00 in0.0 mm 0.00 in0.0 mm 0.00 in0.0 mm
09:47 AM 69.2°F20.7°C 62.0°F16.7°C 78% 15.1 mph W24.3 kmh W 18.0 mph29.0 kmh 29.92 in1013.2 mb 0.00 in0.0 mm 0.00 in0.0 mm 0.00 in0.0 mm
09:46 AM 69.2°F20.7°C 61.7°F16.5°C 77% 14.3 mph W23.0 kmh W 17.0 mph27.4 kmh 29.92 in1013.2 mb 0.00 in0.0 mm 0.00 in0.0 mm 0.00 in0.0 mm
09:45 AM 69.1°F20.6°C 61.9°F16.6°C 78% 13.2 mph W21.2 kmh W 18.0 mph29.0 kmh 29.92 in1013.2 mb 0.00 in0.0 mm 0.00 in0.0 mm 0.00 in0.0 mm
09:44 AM 69.1°F20.6°C 61.6°F16.4°C 77% 15.6 mph W25.1 kmh W 19.0 mph30.6 kmh 29.92 in1013.2 mb 0.00 in0.0 mm 0.00 in0.0 mm 0.00 in0.0 mm
09:43 AM 69.0°F20.6°C 61.8°F16.6°C 78% 16.2 mph WSW26.1 kmh WSW 19.0 mph30.6 kmh 29.92 in1013.2 mb 0.00 in0.0 mm 0.00 in0.0 mm 0.00 in0.0 mm
09:42 AM 68.9°F20.5°C 61.4°F16.3°C 77% 12.9 mph WSW20.8 kmh WSW 20.0 mph32.2 kmh 29.92 in1013.2 mb 0.00 in0.0 mm 0.00 in0.0 mm 0.00 in0.0 mm
09:41 AM 68.9°F20.5°C 61.7°F16.5°C 78% 17.1 mph WSW27.5 kmh WSW 20.0 mph32.2 kmh 29.92 in1013.2 mb 0.00 in0.0 mm 0.00 in0.0 mm 0.00 in0.0 mm
09:40 AM 68.9°F20.5°C 61.7°F16.5°C 78% 17.5 mph WSW28.2 kmh WSW 20.0 mph32.2 kmh 29.92 in1013.2 mb 0.00 in0.0 mm 0.00 in0.0 mm 0.00 in0.0 mm
09:39 AM 68.9°F20.5°C 61.4°F16.3°C 77% 15.7 mph WSW25.3 kmh WSW 20.0 mph32.2 kmh 29.92 in1013.2 mb 0.00 in0.0 mm 0.00 in0.0 mm 0.00 in0.0 mm
09:38 AM 69.0°F20.6°C 61.8°F16.6°C 78% 18.1 mph WSW29.1 kmh WSW 20.0 mph32.2 kmh 29.92 in1013.2 mb 0.00 in0.0 mm 0.00 in0.0 mm 0.00 in0.0 mm
09:37 AM 68.9°F20.5°C 61.4°F16.3°C 77% 15.5 mph WSW24.9 kmh WSW 18.0 mph29.0 kmh 29.92 in1013.2 mb 0.00 in0.0 mm 0.00 in0.0 mm 0.00 in0.0 mm
09:36 AM 69.0°F20.6°C 61.8°F16.6°C 78% 16.5 mph WSW26.6 kmh WSW 19.0 mph30.6 kmh 29.92 in1013.2 mb 0.00 in0.0 mm 0.00 in0.0 mm 0.00 in0.0 mm
09:35 AM 69.1°F20.6°C 61.9°F16.6°C 78% 16.5 mph W26.6 kmh W 19.0 mph30.6 kmh 29.92 in1013.2 mb 0.00 in0.0 mm 0.00 in0.0 mm 0.00 in0.0 mm
09:34 AM 69.0°F20.6°C 61.8°F16.6°C 78% 12.1 mph W19.5 kmh W 18.0 mph29.0 kmh 29.92 in1013.2 mb 0.00 in0.0 mm 0.00 in0.0 mm 0.00 in0.0 mm
09:33 AM 69.0°F20.6°C 61.5°F16.4°C 77% 14.9 mph W24.0 kmh W 20.0 mph32.2 kmh 29.92 in1013.2 mb 0.00 in0.0 mm 0.00 in0.0 mm 0.00 in0.0 mm
09:32 AM 69.0°F20.6°C 61.8°F16.6°C 78% 16.5 mph W26.6 kmh W 20.0 mph32.2 kmh 29.92 in1013.2 mb 0.00 in0.0 mm 0.00 in0.0 mm 0.00 in0.0 mm
09:31 AM 69.0°F20.6°C 61.5°F16.4°C 77% 12.7 mph WSW20.4 kmh WSW 21.0 mph33.8 kmh 29.92 in1013.2 mb 0.00 in0.0 mm 0.00 in0.0 mm 0.00 in0.0 mm
09:30 AM 69.1°F20.6°C 61.9°F16.6°C 78% 17.5 mph WSW28.2 kmh WSW 21.0 mph33.8 kmh 29.92 in1013.2 mb 0.00 in0.0 mm 0.00 in0.0 mm 0.00 in0.0 mm
09:29 AM 69.2°F20.7°C 61.7°F16.5°C 77% 16.6 mph WSW26.7 kmh WSW 20.0 mph32.2 kmh 29.92 in1013.2 mb 0.00 in0.0 mm 0.00 in0.0 mm 0.00 in0.0 mm
09:28 AM 69.3°F20.7°C 61.8°F16.6°C 77% 15.0 mph W24.1 kmh W 18.0 mph29.0 kmh 29.92 in1013.2 mb 0.00 in0.0 mm 0.00 in0.0 mm 0.00 in0.0 mm
09:27 AM 69.3°F20.7°C 62.1°F16.7°C 78% 11.7 mph W18.8 kmh W 17.0 mph27.4 kmh 29.92 in1013.2 mb 0.00 in0.0 mm 0.00 in0.0 mm 0.00 in0.0 mm
09:26 AM 69.2°F20.7°C 61.7°F16.5°C 77% 13.7 mph W22.0 kmh W 18.0 mph29.0 kmh 29.92 in1013.2 mb 0.00 in0.0 mm 0.00 in0.0 mm 0.00 in0.0 mm
09:25 AM 69.1°F20.6°C 61.9°F16.6°C 78% 15.2 mph W24.5 kmh W 18.0 mph29.0 kmh 29.92 in1013.2 mb 0.00 in0.0 mm 0.00 in0.0 mm 0.00 in0.0 mm
09:24 AM 69.1°F20.6°C 61.9°F16.6°C 78% 13.1 mph W21.1 kmh W 18.0 mph29.0 kmh 29.92 in1013.2 mb 0.00 in0.0 mm 0.00 in0.0 mm 0.00 in0.0 mm
09:23 AM 69.0°F20.6°C 61.5°F16.4°C 77% 14.6 mph W23.5 kmh W 18.0 mph29.0 kmh 29.91 in1012.9 mb 0.00 in0.0 mm 0.00 in0.0 mm 0.00 in0.0 mm
09:22 AM 69.0°F20.6°C 61.5°F16.4°C 77% 13.9 mph WSW22.4 kmh WSW 18.0 mph29.0 kmh 29.91 in1012.9 mb 0.00 in0.0 mm 0.00 in0.0 mm 0.00 in0.0 mm
09:21 AM 69.0°F20.6°C 61.5°F16.4°C 77% 15.9 mph WSW25.6 kmh WSW 19.0 mph30.6 kmh 29.92 in1013.2 mb 0.00 in0.0 mm 0.00 in0.0 mm 0.00 in0.0 mm
09:20 AM 69.0°F20.6°C 61.5°F16.4°C 77% 15.7 mph WSW25.3 kmh WSW 19.0 mph30.6 kmh 29.92 in1013.2 mb 0.00 in0.0 mm 0.00 in0.0 mm 0.00 in0.0 mm
09:19 AM 69.0°F20.6°C 61.5°F16.4°C 77% 16.4 mph W26.4 kmh W 19.0 mph30.6 kmh 29.91 in1012.9 mb 0.00 in0.0 mm 0.00 in0.0 mm 0.00 in0.0 mm
09:18 AM 68.9°F20.5°C 61.4°F16.3°C 77% 17.3 mph W27.8 kmh W 20.0 mph32.2 kmh 29.92 in1013.2 mb 0.00 in0.0 mm 0.00 in0.0 mm 0.00 in0.0 mm
09:17 AM 68.9°F20.5°C 61.4°F16.3°C 77% 17.0 mph W27.4 kmh W 20.0 mph32.2 kmh 29.92 in1013.2 mb 0.00 in0.0 mm 0.00 in0.0 mm 0.00 in0.0 mm
09:16 AM 68.9°F20.5°C 61.7°F16.5°C 78% 15.0 mph WSW24.1 kmh WSW 18.0 mph29.0 kmh 29.92 in1013.2 mb 0.00 in0.0 mm 0.00 in0.0 mm 0.00 in0.0 mm
09:15 AM 68.8°F20.4°C 61.7°F16.5°C 78% 15.0 mph WSW24.1 kmh WSW 20.0 mph32.2 kmh 29.91 in1012.9 mb 0.00 in0.0 mm 0.00 in0.0 mm 0.00 in0.0 mm
09:14 AM 68.8°F20.4°C 61.7°F16.5°C 78% 17.5 mph W28.2 kmh W 20.0 mph32.2 kmh 29.92 in1013.2 mb 0.00 in0.0 mm 0.00 in0.0 mm 0.00 in0.0 mm
09:13 AM 68.7°F20.4°C 61.2°F16.2°C 77% 16.0 mph W25.7 kmh W 19.0 mph30.6 kmh 29.92 in1013.2 mb 0.00 in0.0 mm 0.00 in0.0 mm 0.00 in0.0 mm
09:12 AM 68.8°F20.4°C 61.3°F16.3°C 77% 16.6 mph W26.7 kmh W 20.0 mph32.2 kmh 29.92 in1013.2 mb 0.00 in0.0 mm 0.00 in0.0 mm 0.00 in0.0 mm
09:11 AM 68.8°F20.4°C 61.3°F16.3°C 77% 16.7 mph W26.9 kmh W 20.0 mph32.2 kmh 29.92 in1013.2 mb 0.00 in0.0 mm 0.00 in0.0 mm 0.00 in0.0 mm
09:10 AM 68.9°F20.5°C 61.4°F16.3°C 77% 17.6 mph W28.3 kmh W 19.0 mph30.6 kmh 29.91 in1012.9 mb 0.00 in0.0 mm 0.00 in0.0 mm 0.00 in0.0 mm
09:09 AM 68.9°F20.5°C 61.4°F16.3°C 77% 16.8 mph W27.0 kmh W 19.0 mph30.6 kmh 29.91 in1012.9 mb 0.00 in0.0 mm 0.00 in0.0 mm 0.00 in0.0 mm
09:08 AM 68.8°F20.4°C 61.3°F16.3°C 77% 16.0 mph W25.7 kmh W 19.0 mph30.6 kmh 29.91 in1012.9 mb 0.00 in0.0 mm 0.00 in0.0 mm 0.00 in0.0 mm
09:07 AM 68.8°F20.4°C 61.3°F16.3°C 77% 12.4 mph W20.0 kmh W 18.0 mph29.0 kmh 29.91 in1012.9 mb 0.00 in0.0 mm 0.00 in0.0 mm 0.00 in0.0 mm
09:06 AM 68.7°F20.4°C 61.2°F16.2°C 77% 15.4 mph W24.8 kmh W 20.0 mph32.2 kmh 29.91 in1012.9 mb 0.00 in0.0 mm 0.00 in0.0 mm 0.00 in0.0 mm
09:05 AM 68.7°F20.4°C 61.2°F16.2°C 77% 17.7 mph W28.5 kmh W 20.0 mph32.2 kmh 29.91 in1012.9 mb 0.00 in0.0 mm 0.00 in0.0 mm 0.00 in0.0 mm
09:04 AM 68.7°F20.4°C 61.6°F16.4°C 78% 16.8 mph W27.0 kmh W 20.0 mph32.2 kmh 29.91 in1012.9 mb 0.00 in0.0 mm 0.00 in0.0 mm 0.00 in0.0 mm
09:03 AM 68.7°F20.4°C 61.2°F16.2°C 77% 17.3 mph W27.8 kmh W 20.0 mph32.2 kmh 29.91 in1012.9 mb 0.00 in0.0 mm 0.00 in0.0 mm 0.00 in0.0 mm
09:02 AM 68.7°F20.4°C 61.6°F16.4°C 78% 15.8 mph WSW25.4 kmh WSW 19.0 mph30.6 kmh 29.91 in1012.9 mb 0.00 in0.0 mm 0.00 in0.0 mm 0.00 in0.0 mm
09:01 AM 68.6°F20.3°C 61.5°F16.4°C 78% 15.6 mph WSW25.1 kmh WSW 19.0 mph30.6 kmh 29.91 in1012.9 mb 0.00 in0.0 mm 0.00 in0.0 mm 0.00 in0.0 mm
09:00 AM 68.5°F20.3°C 61.4°F16.3°C 78% 15.1 mph WSW24.3 kmh WSW 18.0 mph29.0 kmh 29.91 in1012.9 mb 0.00 in0.0 mm 0.00 in0.0 mm 0.00 in0.0 mm
08:59 AM 68.5°F20.3°C 61.4°F16.3°C 78% 12.9 mph WSW20.8 kmh WSW 17.0 mph27.4 kmh 29.91 in1012.9 mb 0.00 in0.0 mm 0.00 in0.0 mm 0.00 in0.0 mm
08:58 AM 68.4°F20.2°C 61.3°F16.3°C 78% 13.5 mph WSW21.7 kmh WSW 19.0 mph30.6 kmh 29.91 in1012.9 mb 0.00 in0.0 mm 0.00 in0.0 mm 0.00 in0.0 mm
08:57 AM 68.3°F20.2°C 61.2°F16.2°C 78% 15.2 mph W24.5 kmh W 19.0 mph30.6 kmh 29.91 in1012.9 mb 0.00 in0.0 mm 0.00 in0.0 mm 0.00 in0.0 mm
08:56 AM 68.3°F20.2°C 61.5°F16.4°C 79% 12.9 mph W20.8 kmh W 15.0 mph24.1 kmh 29.91 in1012.9 mb 0.00 in0.0 mm 0.00 in0.0 mm 0.00 in0.0 mm
08:55 AM 68.2°F20.1°C 61.4°F16.3°C 79% 13.5 mph W21.7 kmh W 17.0 mph27.4 kmh 29.91 in1012.9 mb 0.00 in0.0 mm 0.00 in0.0 mm 0.00 in0.0 mm
08:54 AM 68.1°F20.1°C 61.3°F16.3°C 79% 14.5 mph W23.3 kmh W 18.0 mph29.0 kmh 29.91 in1012.9 mb 0.00 in0.0 mm 0.00 in0.0 mm 0.00 in0.0 mm
08:53 AM 68.1°F20.1°C 61.3°F16.3°C 79% 16.2 mph W26.1 kmh W 18.0 mph29.0 kmh 29.91 in1012.9 mb 0.00 in0.0 mm 0.00 in0.0 mm 0.00 in0.0 mm
08:52 AM 68.0°F20.0°C 61.2°F16.2°C 79% 14.8 mph WSW23.8 kmh WSW 18.0 mph29.0 kmh 29.91 in1012.9 mb 0.00 in0.0 mm 0.00 in0.0 mm 0.00 in0.0 mm
08:51 AM 68.0°F20.0°C 60.9°F16.1°C 78% 14.9 mph WSW24.0 kmh WSW 18.0 mph29.0 kmh 29.91 in1012.9 mb 0.00 in0.0 mm 0.00 in0.0 mm 0.00 in0.0 mm
08:50 AM 67.9°F19.9°C 61.1°F16.2°C 79% 14.3 mph WSW23.0 kmh WSW 17.0 mph27.4 kmh 29.91 in1012.9 mb 0.00 in0.0 mm 0.00 in0.0 mm 0.00 in0.0 mm
08:49 AM 67.9°F19.9°C 61.1°F16.2°C 79% 14.7 mph W23.7 kmh W 19.0 mph30.6 kmh 29.91 in1012.9 mb 0.00 in0.0 mm 0.00 in0.0 mm 0.00 in0.0 mm
08:48 AM 67.9°F19.9°C 61.1°F16.2°C 79% 17.0 mph W27.4 kmh W 19.0 mph30.6 kmh 29.91 in1012.9 mb 0.00 in0.0 mm 0.00 in0.0 mm 0.00 in0.0 mm
08:47 AM 67.8°F19.9°C 61.0°F16.1°C 79% 15.4 mph WSW24.8 kmh WSW 17.0 mph27.4 kmh 29.91 in1012.9 mb 0.00 in0.0 mm 0.00 in0.0 mm 0.00 in0.0 mm
08:46 AM 67.8°F19.9°C 61.0°F16.1°C 79% 12.6 mph WSW20.3 kmh WSW 17.0 mph27.4 kmh 29.91 in1012.9 mb 0.00 in0.0 mm 0.00 in0.0 mm 0.00 in0.0 mm
08:45 AM 67.8°F19.9°C 61.0°F16.1°C 79% 14.3 mph W23.0 kmh W 18.0 mph29.0 kmh 29.91 in1012.9 mb 0.00 in0.0 mm 0.00 in0.0 mm 0.00 in0.0 mm
08:44 AM 67.9°F19.9°C 61.1°F16.2°C 79% 15.4 mph W24.8 kmh W 18.0 mph29.0 kmh 29.91 in1012.9 mb 0.00 in0.0 mm 0.00 in0.0 mm 0.00 in0.0 mm
08:43 AM 67.8°F19.9°C 61.0°F16.1°C 79% 15.2 mph W24.5 kmh W 18.0 mph29.0 kmh 29.91 in1012.9 mb 0.00 in0.0 mm 0.00 in0.0 mm 0.00 in0.0 mm
08:42 AM 67.9°F19.9°C 61.1°F16.2°C 79% 13.9 mph W22.4 kmh W 18.0 mph29.0 kmh 29.91 in1012.9 mb 0.00 in0.0 mm 0.00 in0.0 mm 0.00 in0.0 mm
08:41 AM 67.9°F19.9°C 61.1°F16.2°C 79% 15.2 mph W24.5 kmh W 17.0 mph27.4 kmh 29.91 in1012.9 mb 0.00 in0.0 mm 0.00 in0.0 mm 0.00 in0.0 mm
08:40 AM 67.9°F19.9°C 61.1°F16.2°C 79% 13.9 mph WSW22.4 kmh WSW 18.0 mph29.0 kmh 29.91 in1012.9 mb 0.00 in0.0 mm 0.00 in0.0 mm 0.00 in0.0 mm
08:39 AM 67.8°F19.9°C 61.0°F16.1°C 79% 13.8 mph W22.2 kmh W 18.0 mph29.0 kmh 29.91 in1012.9 mb 0.00 in0.0 mm 0.00 in0.0 mm 0.00 in0.0 mm
08:38 AM 67.8°F19.9°C 61.0°F16.1°C 79% 15.7 mph W25.3 kmh W 18.0 mph29.0 kmh 29.91 in1012.9 mb 0.00 in0.0 mm 0.00 in0.0 mm 0.00 in0.0 mm
08:37 AM 67.8°F19.9°C 61.4°F16.3°C 80% 16.1 mph W25.9 kmh W 17.0 mph27.4 kmh 29.91 in1012.9 mb 0.00 in0.0 mm 0.00 in0.0 mm 0.00 in0.0 mm
08:36 AM 67.8°F19.9°C 61.0°F16.1°C 79% 12.4 mph W20.0 kmh W 16.0 mph25.7 kmh 29.91 in1012.9 mb 0.00 in0.0 mm 0.00 in0.0 mm 0.00 in0.0 mm
08:35 AM 67.8°F19.9°C 61.0°F16.1°C 79% 14.0 mph WSW22.5 kmh WSW 17.0 mph27.4 kmh 29.91 in1012.9 mb 0.00 in0.0 mm 0.00 in0.0 mm 0.00 in0.0 mm
08:34 AM 67.8°F19.9°C 61.0°F16.1°C 79% 14.8 mph WSW23.8 kmh WSW 17.0 mph27.4 kmh 29.91 in1012.9 mb 0.00 in0.0 mm 0.00 in0.0 mm 0.00 in0.0 mm
08:33 AM 67.8°F19.9°C 61.4°F16.3°C 80% 14.2 mph W22.9 kmh W 17.0 mph27.4 kmh 29.91 in1012.9 mb 0.00 in0.0 mm 0.00 in0.0 mm 0.00 in0.0 mm
08:32 AM 67.7°F19.8°C 61.3°F16.3°C 80% 15.0 mph WSW24.1 kmh WSW 19.0 mph30.6 kmh 29.91 in1012.9 mb 0.00 in0.0 mm 0.00 in0.0 mm 0.00 in0.0 mm
08:31 AM 67.7°F19.8°C 60.9°F16.1°C 79% 15.0 mph W24.1 kmh W 19.0 mph30.6 kmh 29.91 in1012.9 mb 0.00 in0.0 mm 0.00 in0.0 mm 0.00 in0.0 mm
08:30 AM 67.6°F19.8°C 60.8°F16.0°C 79% 14.8 mph W23.8 kmh W 18.0 mph29.0 kmh 29.91 in1012.9 mb 0.00 in0.0 mm 0.00 in0.0 mm 0.00 in0.0 mm
08:29 AM 67.6°F19.8°C 60.8°F16.0°C 79% 16.2 mph W26.1 kmh W 18.0 mph29.0 kmh 29.91 in1012.9 mb 0.00 in0.0 mm 0.00 in0.0 mm 0.00 in0.0 mm
08:28 AM 67.6°F19.8°C 60.8°F16.0°C 79% 15.0 mph WSW24.1 kmh WSW 18.0 mph29.0 kmh 29.91 in1012.9 mb 0.00 in0.0 mm 0.00 in0.0 mm 0.00 in0.0 mm
08:27 AM 67.4°F19.7°C 60.7°F15.9°C 79% 15.7 mph WSW25.3 kmh WSW 20.0 mph32.2 kmh 29.91 in1012.9 mb 0.00 in0.0 mm 0.00 in0.0 mm 0.00 in0.0 mm
08:26 AM 67.5°F19.7°C 60.8°F16.0°C 79% 18.4 mph WSW29.6 kmh WSW 20.0 mph32.2 kmh 29.91 in1012.9 mb 0.00 in0.0 mm 0.00 in0.0 mm 0.00 in0.0 mm
08:25 AM 67.5°F19.7°C 61.1°F16.2°C 80% 16.5 mph W26.6 kmh W 20.0 mph32.2 kmh 29.91 in1012.9 mb 0.00 in0.0 mm 0.00 in0.0 mm 0.00 in0.0 mm
08:24 AM 67.5°F19.7°C 60.8°F16.0°C 79% 14.2 mph WSW22.9 kmh WSW 18.0 mph29.0 kmh 29.91 in1012.9 mb 0.00 in0.0 mm 0.00 in0.0 mm 0.00 in0.0 mm
08:23 AM 67.5°F19.7°C 60.8°F16.0°C 79% 16.2 mph WSW26.1 kmh WSW 18.0 mph29.0 kmh 29.91 in1012.9 mb 0.00 in0.0 mm 0.00 in0.0 mm 0.00 in0.0 mm
08:22 AM 67.4°F19.7°C 60.7°F15.9°C 79% 16.3 mph WSW26.2 kmh WSW 18.0 mph29.0 kmh 29.91 in1012.9 mb 0.00 in0.0 mm 0.00 in0.0 mm 0.00 in0.0 mm
08:21 AM 67.5°F19.7°C 60.8°F16.0°C 79% 16.3 mph W26.2 kmh W 18.0 mph29.0 kmh 29.91 in1012.9 mb 0.00 in0.0 mm 0.00 in0.0 mm 0.00 in0.0 mm
08:20 AM 67.6°F19.8°C 60.8°F16.0°C 79% 15.6 mph WSW25.1 kmh WSW 20.0 mph32.2 kmh 29.91 in1012.9 mb 0.00 in0.0 mm 0.00 in0.0 mm 0.00 in0.0 mm
08:19 AM 67.5°F19.7°C 60.8°F16.0°C 79% 17.1 mph WSW27.5 kmh WSW 20.0 mph32.2 kmh 29.91 in1012.9 mb 0.00 in0.0 mm 0.00 in0.0 mm 0.00 in0.0 mm
08:18 AM 67.5°F19.7°C 61.1°F16.2°C 80% 17.5 mph WSW28.2 kmh WSW 20.0 mph32.2 kmh 29.91 in1012.9 mb 0.00 in0.0 mm 0.00 in0.0 mm 0.00 in0.0 mm
08:17 AM 67.4°F19.7°C 61.0°F16.1°C 80% 13.1 mph WSW21.1 kmh WSW 19.0 mph30.6 kmh 29.91 in1012.9 mb 0.00 in0.0 mm 0.00 in0.0 mm 0.00 in0.0 mm
08:16 AM 67.3°F19.6°C 60.6°F15.9°C 79% 17.3 mph WSW27.8 kmh WSW 20.0 mph32.2 kmh 29.91 in1012.9 mb 0.00 in0.0 mm 0.00 in0.0 mm 0.00 in0.0 mm
08:15 AM 67.3°F19.6°C 60.9°F16.1°C 80% 16.1 mph WSW25.9 kmh WSW 20.0 mph32.2 kmh 29.91 in1012.9 mb 0.00 in0.0 mm 0.00 in0.0 mm 0.00 in0.0 mm
08:14 AM 67.3°F19.6°C 60.9°F16.1°C 80% 12.5 mph WSW20.1 kmh WSW 17.0 mph27.4 kmh 29.91 in1012.9 mb 0.00 in0.0 mm 0.00 in0.0 mm 0.00 in0.0 mm
08:13 AM 67.3°F19.6°C 60.9°F16.1°C 80% 14.5 mph WSW23.3 kmh WSW 18.0 mph29.0 kmh 29.90 in1012.5 mb 0.00 in0.0 mm 0.00 in0.0 mm 0.00 in0.0 mm
08:12 AM 67.3°F19.6°C 60.9°F16.1°C 80% 15.9 mph WSW25.6 kmh WSW 19.0 mph30.6 kmh 29.90 in1012.5 mb 0.00 in0.0 mm 0.00 in0.0 mm 0.00 in0.0 mm
08:11 AM 67.4°F19.7°C 61.0°F16.1°C 80% 16.7 mph WSW26.9 kmh WSW 20.0 mph32.2 kmh 29.91 in1012.9 mb 0.00 in0.0 mm 0.00 in0.0 mm 0.00 in0.0 mm
08:10 AM 67.3°F19.6°C 60.9°F16.1°C 80% 16.0 mph WSW25.7 kmh WSW 20.0 mph32.2 kmh 29.91 in1012.9 mb 0.00 in0.0 mm 0.00 in0.0 mm 0.00 in0.0 mm
08:09 AM 67.3°F19.6°C 60.9°F16.1°C 80% 15.5 mph WSW24.9 kmh WSW 20.0 mph32.2 kmh 29.90 in1012.5 mb 0.00 in0.0 mm 0.00 in0.0 mm 0.00 in0.0 mm
08:08 AM 67.3°F19.6°C 60.9°F16.1°C 80% 15.0 mph WSW24.1 kmh WSW 20.0 mph32.2 kmh 29.91 in1012.9 mb 0.00 in0.0 mm 0.00 in0.0 mm 0.00 in0.0 mm
08:07 AM 67.3°F19.6°C 60.9°F16.1°C 80% 12.6 mph WSW20.3 kmh WSW 15.0 mph24.1 kmh 29.91 in1012.9 mb 0.00 in0.0 mm 0.00 in0.0 mm 0.00 in0.0 mm
08:06 AM 67.2°F19.6°C 60.8°F16.0°C 80% 12.5 mph WSW20.1 kmh WSW 18.0 mph29.0 kmh 29.91 in1012.9 mb 0.00 in0.0 mm 0.00 in0.0 mm 0.00 in0.0 mm
08:05 AM 67.1°F19.5°C 60.7°F15.9°C 80% 14.1 mph W22.7 kmh W 18.0 mph29.0 kmh 29.91 in1012.9 mb 0.00 in0.0 mm 0.00 in0.0 mm 0.00 in0.0 mm
08:04 AM 67.1°F19.5°C 60.7°F15.9°C 80% 15.3 mph W24.6 kmh W 20.0 mph32.2 kmh 29.91 in1012.9 mb 0.00 in0.0 mm 0.00 in0.0 mm 0.00 in0.0 mm
08:03 AM 67.1°F19.5°C 60.7°F15.9°C 80% 18.5 mph W29.8 kmh W 21.0 mph33.8 kmh 29.91 in1012.9 mb 0.00 in0.0 mm 0.00 in0.0 mm 0.00 in0.0 mm
08:02 AM 67.2°F19.6°C 61.2°F16.2°C 81% 16.6 mph WSW26.7 kmh WSW 21.0 mph33.8 kmh 29.91 in1012.9 mb 0.00 in0.0 mm 0.00 in0.0 mm 0.00 in0.0 mm
08:01 AM 67.1°F19.5°C 61.1°F16.2°C 81% 16.0 mph W25.7 kmh W 20.0 mph32.2 kmh 29.91 in1012.9 mb 0.00 in0.0 mm 0.00 in0.0 mm 0.00 in0.0 mm
08:00 AM 67.0°F19.4°C 60.6°F15.9°C 80% 16.1 mph WSW25.9 kmh WSW 21.0 mph33.8 kmh 29.91 in1012.9 mb 0.00 in0.0 mm 0.00 in0.0 mm 0.00 in0.0 mm
07:59 AM 67.0°F19.4°C 61.0°F16.1°C 81% 17.4 mph WSW28.0 kmh WSW 21.0 mph33.8 kmh 29.91 in1012.9 mb 0.00 in0.0 mm 0.00 in0.0 mm 0.00 in0.0 mm
07:58 AM 67.1°F19.5°C 61.1°F16.2°C 81% 15.2 mph W24.5 kmh W 19.0 mph30.6 kmh 29.90 in1012.5 mb 0.00 in0.0 mm 0.00 in0.0 mm 0.00 in0.0 mm
07:57 AM 66.9°F19.4°C 60.5°F15.8°C 80% 14.2 mph W22.9 kmh W 19.0 mph30.6 kmh 29.91 in1012.9 mb 0.00 in0.0 mm 0.00 in0.0 mm 0.00 in0.0 mm
07:56 AM 66.8°F19.3°C 60.4°F15.8°C 80% 14.6 mph W23.5 kmh W 19.0 mph30.6 kmh 29.90 in1012.5 mb 0.00 in0.0 mm 0.00 in0.0 mm 0.00 in0.0 mm
07:55 AM 66.9°F19.4°C 60.5°F15.8°C 80% 16.2 mph W26.1 kmh W 20.0 mph32.2 kmh 29.90 in1012.5 mb 0.00 in0.0 mm 0.00 in0.0 mm 0.00 in0.0 mm
07:54 AM 66.9°F19.4°C 60.5°F15.8°C 80% 17.7 mph W28.5 kmh W 20.0 mph32.2 kmh 29.91 in1012.9 mb 0.00 in0.0 mm 0.00 in0.0 mm 0.00 in0.0 mm
07:53 AM 66.9°F19.4°C 60.5°F15.8°C 80% 15.7 mph W25.3 kmh W 20.0 mph32.2 kmh 29.90 in1012.5 mb 0.00 in0.0 mm 0.00 in0.0 mm 0.00 in0.0 mm
07:52 AM 66.8°F19.3°C 60.4°F15.8°C 80% 17.4 mph WSW28.0 kmh WSW 21.0 mph33.8 kmh 29.90 in1012.5 mb 0.00 in0.0 mm 0.00 in0.0 mm 0.00 in0.0 mm
07:51 AM 66.8°F19.3°C 60.4°F15.8°C 80% 16.5 mph WSW26.6 kmh WSW 21.0 mph33.8 kmh 29.91 in1012.9 mb 0.00 in0.0 mm 0.00 in0.0 mm 0.00 in0.0 mm
07:50 AM 66.8°F19.3°C 60.8°F16.0°C 81% 15.2 mph W24.5 kmh W 20.0 mph32.2 kmh 29.90 in1012.5 mb 0.00 in0.0 mm 0.00 in0.0 mm 0.00 in0.0 mm
07:49 AM 66.8°F19.3°C 60.4°F15.8°C 80% 17.4 mph W28.0 kmh W 21.0 mph33.8 kmh 29.91 in1012.9 mb 0.00 in0.0 mm 0.00 in0.0 mm 0.00 in0.0 mm
07:48 AM 66.8°F19.3°C 60.4°F15.8°C 80% 18.2 mph WSW29.3 kmh WSW 21.0 mph33.8 kmh 29.90 in1012.5 mb 0.00 in0.0 mm 0.00 in0.0 mm 0.00 in0.0 mm
07:47 AM 66.8°F19.3°C 60.4°F15.8°C 80% 16.4 mph WSW26.4 kmh WSW 20.0 mph32.2 kmh 29.91 in1012.9 mb 0.00 in0.0 mm 0.00 in0.0 mm 0.00 in0.0 mm
07:46 AM 66.8°F19.3°C 60.4°F15.8°C 80% 18.4 mph WSW29.6 kmh WSW 20.0 mph32.2 kmh 29.91 in1012.9 mb 0.00 in0.0 mm 0.00 in0.0 mm 0.00 in0.0 mm
07:45 AM 66.9°F19.4°C 60.9°F16.1°C 81% 17.7 mph W28.5 kmh W 20.0 mph32.2 kmh 29.91 in1012.9 mb 0.00 in0.0 mm 0.00 in0.0 mm 0.00 in0.0 mm
07:44 AM 66.8°F19.3°C 60.8°F16.0°C 81% 15.5 mph W24.9 kmh W 18.0 mph29.0 kmh 29.91 in1012.9 mb 0.00 in0.0 mm 0.00 in0.0 mm 0.00 in0.0 mm
07:43 AM 66.8°F19.3°C 60.4°F15.8°C 80% 13.4 mph W21.6 kmh W 17.0 mph27.4 kmh 29.90 in1012.5 mb 0.00 in0.0 mm 0.00 in0.0 mm 0.00 in0.0 mm
07:42 AM 66.8°F19.3°C 60.4°F15.8°C 80% 14.5 mph W23.3 kmh W 19.0 mph30.6 kmh 29.90 in1012.5 mb 0.00 in0.0 mm 0.00 in0.0 mm 0.00 in0.0 mm
07:41 AM 66.8°F19.3°C 60.4°F15.8°C 80% 16.6 mph W26.7 kmh W 19.0 mph30.6 kmh 29.90 in1012.5 mb 0.00 in0.0 mm 0.00 in0.0 mm 0.00 in0.0 mm
07:40 AM 66.7°F19.3°C 60.3°F15.7°C 80% 17.6 mph W28.3 kmh W 20.0 mph32.2 kmh 29.90 in1012.5 mb 0.00 in0.0 mm 0.00 in0.0 mm 0.00 in0.0 mm
07:39 AM 66.7°F19.3°C 60.3°F15.7°C 80% 17.9 mph W28.8 kmh W 22.0 mph35.4 kmh 29.90 in1012.5 mb 0.00 in0.0 mm 0.00 in0.0 mm 0.00 in0.0 mm
07:38 AM 66.6°F19.2°C 60.6°F15.9°C 81% 16.3 mph W26.2 kmh W 22.0 mph35.4 kmh 29.90 in1012.5 mb 0.00 in0.0 mm 0.00 in0.0 mm 0.00 in0.0 mm
07:37 AM 66.6°F19.2°C 60.2°F15.7°C 80% 15.7 mph W25.3 kmh W 19.0 mph30.6 kmh 29.90 in1012.5 mb 0.00 in0.0 mm 0.00 in0.0 mm 0.00 in0.0 mm
07:36 AM 66.5°F19.2°C 60.1°F15.6°C 80% 16.5 mph W26.6 kmh W 19.0 mph30.6 kmh 29.90 in1012.5 mb 0.00 in0.0 mm 0.00 in0.0 mm 0.00 in0.0 mm
07:35 AM 66.5°F19.2°C 60.1°F15.6°C 80% 16.8 mph W27.0 kmh W 20.0 mph32.2 kmh 29.90 in1012.5 mb 0.00 in0.0 mm 0.00 in0.0 mm 0.00 in0.0 mm
07:34 AM 66.5°F19.2°C 60.1°F15.6°C 80% 16.3 mph W26.2 kmh W 21.0 mph33.8 kmh 29.90 in1012.5 mb 0.00 in0.0 mm 0.00 in0.0 mm 0.00 in0.0 mm
07:33 AM 66.5°F19.2°C 60.5°F15.8°C 81% 16.0 mph W25.7 kmh W 21.0 mph33.8 kmh 29.90 in1012.5 mb 0.00 in0.0 mm 0.00 in0.0 mm 0.00 in0.0 mm
07:32 AM 66.4°F19.1°C 60.0°F15.6°C 80% 14.8 mph W23.8 kmh W 19.0 mph30.6 kmh 29.90 in1012.5 mb 0.00 in0.0 mm 0.00 in0.0 mm 0.00 in0.0 mm
07:31 AM 66.4°F19.1°C 60.0°F15.6°C 80% 16.3 mph W26.2 kmh W 21.0 mph33.8 kmh 29.90 in1012.5 mb 0.00 in0.0 mm 0.00 in0.0 mm 0.00 in0.0 mm
07:30 AM 66.4°F19.1°C 60.4°F15.8°C 81% 18.2 mph W29.3 kmh W 21.0 mph33.8 kmh 29.90 in1012.5 mb 0.00 in0.0 mm 0.00 in0.0 mm 0.00 in0.0 mm
07:29 AM 66.4°F19.1°C 60.0°F15.6°C 80% 17.8 mph W28.6 kmh W 20.0 mph32.2 kmh 29.90 in1012.5 mb 0.00 in0.0 mm 0.00 in0.0 mm 0.00 in0.0 mm
07:28 AM 66.4°F19.1°C 60.4°F15.8°C 81% 17.1 mph W27.5 kmh W 19.0 mph30.6 kmh 29.90 in1012.5 mb 0.00 in0.0 mm 0.00 in0.0 mm 0.00 in0.0 mm
07:27 AM 66.2°F19.0°C 59.8°F15.4°C 80% 14.4 mph W23.2 kmh W 19.0 mph30.6 kmh 29.90 in1012.5 mb 0.00 in0.0 mm 0.00 in0.0 mm 0.00 in0.0 mm
07:26 AM 66.2°F19.0°C 60.2°F15.7°C 81% 17.0 mph W27.4 kmh W 19.0 mph30.6 kmh 29.90 in1012.5 mb 0.00 in0.0 mm 0.00 in0.0 mm 0.00 in0.0 mm
07:25 AM 66.2°F19.0°C 60.2°F15.7°C 81% 15.0 mph W24.1 kmh W 19.0 mph30.6 kmh 29.90 in1012.5 mb 0.00 in0.0 mm 0.00 in0.0 mm 0.00 in0.0 mm
07:24 AM 66.2°F19.0°C 60.2°F15.7°C 81% 12.6 mph W20.3 kmh W 20.0 mph32.2 kmh 29.90 in1012.5 mb 0.00 in0.0 mm 0.00 in0.0 mm 0.00 in0.0 mm
07:23 AM 66.1°F18.9°C 60.1°F15.6°C 81% 16.1 mph W25.9 kmh W 20.0 mph32.2 kmh 29.90 in1012.5 mb 0.00 in0.0 mm 0.00 in0.0 mm 0.00 in0.0 mm
07:22 AM 66.1°F18.9°C 60.1°F15.6°C 81% 16.1 mph WSW25.9 kmh WSW 19.0 mph30.6 kmh 29.90 in1012.5 mb 0.00 in0.0 mm 0.00 in0.0 mm 0.00 in0.0 mm
07:21 AM 66.1°F18.9°C 60.4°F15.8°C 82% 15.8 mph W25.4 kmh W 18.0 mph29.0 kmh 29.90 in1012.5 mb 0.00 in0.0 mm 0.00 in0.0 mm 0.00 in0.0 mm
07:20 AM 66.0°F18.9°C 60.3°F15.7°C 82% 13.7 mph W22.0 kmh W 16.0 mph25.7 kmh 29.90 in1012.5 mb 0.00 in0.0 mm 0.00 in0.0 mm 0.00 in0.0 mm
07:19 AM 66.0°F18.9°C 60.3°F15.7°C 82% 13.0 mph W20.9 kmh W 17.0 mph27.4 kmh 29.90 in1012.5 mb 0.00 in0.0 mm 0.00 in0.0 mm 0.00 in0.0 mm
07:18 AM 65.9°F18.8°C 59.9°F15.5°C 81% 13.2 mph W21.2 kmh W 18.0 mph29.0 kmh 29.90 in1012.5 mb 0.00 in0.0 mm 0.00 in0.0 mm 0.00 in0.0 mm
07:17 AM 65.9°F18.8°C 59.9°F15.5°C 81% 14.9 mph W24.0 kmh W 20.0 mph32.2 kmh 29.90 in1012.5 mb 0.00 in0.0 mm 0.00 in0.0 mm 0.00 in0.0 mm
07:16 AM 65.9°F18.8°C 60.2°F15.7°C 82% 17.7 mph W28.5 kmh W 20.0 mph32.2 kmh 29.90 in1012.5 mb 0.00 in0.0 mm 0.00 in0.0 mm 0.00 in0.0 mm
07:15 AM 65.9°F18.8°C 60.2°F15.7°C 82% 15.0 mph W24.1 kmh W 19.0 mph30.6 kmh 29.90 in1012.5 mb 0.00 in0.0 mm 0.00 in0.0 mm 0.00 in0.0 mm
07:14 AM 65.8°F18.8°C 59.8°F15.4°C 81% 13.7 mph W22.0 kmh W 18.0 mph29.0 kmh 29.90 in1012.5 mb 0.00 in0.0 mm 0.00 in0.0 mm 0.00 in0.0 mm
07:13 AM 65.7°F18.7°C 59.7°F15.4°C 81% 16.6 mph W26.7 kmh W 19.0 mph30.6 kmh 29.90 in1012.5 mb 0.00 in0.0 mm 0.00 in0.0 mm 0.00 in0.0 mm
07:12 AM 65.7°F18.7°C 59.7°F15.4°C 81% 15.5 mph WSW24.9 kmh WSW 19.0 mph30.6 kmh 29.90 in1012.5 mb 0.00 in0.0 mm 0.00 in0.0 mm 0.00 in0.0 mm
07:11 AM 65.7°F18.7°C 59.7°F15.4°C 81% 15.8 mph W25.4 kmh W 19.0 mph30.6 kmh 29.90 in1012.5 mb 0.00 in0.0 mm 0.00 in0.0 mm 0.00 in0.0 mm
07:10 AM 65.7°F18.7°C 60.0°F15.6°C 82% 16.2 mph W26.1 kmh W 19.0 mph30.6 kmh 29.90 in1012.5 mb 0.00 in0.0 mm 0.00 in0.0 mm 0.00 in0.0 mm
07:09 AM 65.7°F18.7°C 60.0°F15.6°C 82% 14.6 mph W23.5 kmh W 20.0 mph32.2 kmh 29.90 in1012.5 mb 0.00 in0.0 mm 0.00 in0.0 mm 0.00 in0.0 mm
07:08 AM 65.7°F18.7°C 60.0°F15.6°C 82% 16.8 mph W27.0 kmh W 20.0 mph32.2 kmh 29.90 in1012.5 mb 0.00 in0.0 mm 0.00 in0.0 mm 0.00 in0.0 mm
07:07 AM 65.7°F18.7°C 60.0°F15.6°C 82% 16.1 mph W25.9 kmh W 19.0 mph30.6 kmh 29.90 in1012.5 mb 0.00 in0.0 mm 0.00 in0.0 mm 0.00 in0.0 mm
07:06 AM 65.7°F18.7°C 60.0°F15.6°C 82% 15.9 mph W25.6 kmh W 19.0 mph30.6 kmh 29.90 in1012.5 mb 0.00 in0.0 mm 0.00 in0.0 mm 0.00 in0.0 mm
07:05 AM 65.6°F18.7°C 60.3°F15.7°C 83% 10.8 mph W17.4 kmh W 15.0 mph24.1 kmh 29.90 in1012.5 mb 0.00 in0.0 mm 0.00 in0.0 mm 0.00 in0.0 mm
07:04 AM 65.5°F18.6°C 59.9°F15.5°C 82% 11.2 mph W18.0 kmh W 15.0 mph24.1 kmh 29.90 in1012.5 mb 0.00 in0.0 mm 0.00 in0.0 mm 0.00 in0.0 mm
07:03 AM 65.5°F18.6°C 59.9°F15.5°C 82% 13.7 mph W22.0 kmh W 19.0 mph30.6 kmh 29.90 in1012.5 mb 0.00 in0.0 mm 0.00 in0.0 mm 0.00 in0.0 mm
07:02 AM 65.5°F18.6°C 59.9°F15.5°C 82% 16.4 mph W26.4 kmh W 19.0 mph30.6 kmh 29.90 in1012.5 mb 0.00 in0.0 mm 0.00 in0.0 mm 0.00 in0.0 mm
07:01 AM 65.4°F18.6°C 59.8°F15.4°C 82% 12.8 mph W20.6 kmh W 17.0 mph27.4 kmh 29.90 in1012.5 mb 0.00 in0.0 mm 0.00 in0.0 mm 0.00 in0.0 mm
07:00 AM 65.3°F18.5°C 59.7°F15.4°C 82% 14.3 mph WSW23.0 kmh WSW 18.0 mph29.0 kmh 29.90 in1012.5 mb 0.00 in0.0 mm 0.00 in0.0 mm 0.00 in0.0 mm
06:59 AM 65.4°F18.6°C 59.8°F15.4°C 82% 14.8 mph W23.8 kmh W 18.0 mph29.0 kmh 29.90 in1012.5 mb 0.00 in0.0 mm 0.00 in0.0 mm 0.00 in0.0 mm
06:58 AM 65.3°F18.5°C 60.0°F15.6°C 83% 15.4 mph WSW24.8 kmh WSW 18.0 mph29.0 kmh 29.90 in1012.5 mb 0.00 in0.0 mm 0.00 in0.0 mm 0.00 in0.0 mm
06:57 AM 65.3°F18.5°C 59.7°F15.4°C 82% 13.9 mph WSW22.4 kmh WSW 17.0 mph27.4 kmh 29.90 in1012.5 mb 0.00 in0.0 mm 0.00 in0.0 mm 0.00 in0.0 mm
06:56 AM 65.2°F18.4°C 59.9°F15.5°C 83% 15.4 mph WSW24.8 kmh WSW 17.0 mph27.4 kmh 29.90 in1012.5 mb 0.00 in0.0 mm 0.00 in0.0 mm 0.00 in0.0 mm
06:55 AM 65.2°F18.4°C 59.9°F15.5°C 83% 15.3 mph WSW24.6 kmh WSW 17.0 mph27.4 kmh 29.90 in1012.5 mb 0.00 in0.0 mm 0.00 in0.0 mm 0.00 in0.0 mm
06:54 AM 65.2°F18.4°C 59.9°F15.5°C 83% 14.1 mph WSW22.7 kmh WSW 18.0 mph29.0 kmh 29.90 in1012.5 mb 0.00 in0.0 mm 0.00 in0.0 mm 0.00 in0.0 mm
06:53 AM 65.2°F18.4°C 59.6°F15.3°C 82% 16.0 mph W25.7 kmh W 19.0 mph30.6 kmh 29.90 in1012.5 mb 0.00 in0.0 mm 0.00 in0.0 mm 0.00 in0.0 mm
06:52 AM 65.1°F18.4°C 59.8°F15.4°C 83% 16.7 mph WSW26.9 kmh WSW 19.0 mph30.6 kmh 29.90 in1012.5 mb 0.00 in0.0 mm 0.00 in0.0 mm 0.00 in0.0 mm
06:51 AM 65.1°F18.4°C 59.8°F15.4°C 83% 14.4 mph WSW23.2 kmh WSW 18.0 mph29.0 kmh 29.90 in1012.5 mb 0.00 in0.0 mm 0.00 in0.0 mm 0.00 in0.0 mm
06:50 AM 65.1°F18.4°C 59.8°F15.4°C 83% 15.5 mph WSW24.9 kmh WSW 18.0 mph29.0 kmh 29.90 in1012.5 mb 0.00 in0.0 mm 0.00 in0.0 mm 0.00 in0.0 mm
06:49 AM 65.1°F18.4°C 59.8°F15.4°C 83% 14.8 mph W23.8 kmh W 19.0 mph30.6 kmh 29.90 in1012.5 mb 0.00 in0.0 mm 0.00 in0.0 mm 0.00 in0.0 mm
06:48 AM 65.1°F18.4°C 60.1°F15.6°C 84% 14.5 mph WSW23.3 kmh WSW 19.0 mph30.6 kmh 29.90 in1012.5 mb 0.00 in0.0 mm 0.00 in0.0 mm 0.00 in0.0 mm
06:47 AM 65.1°F18.4°C 59.8°F15.4°C 83% 16.0 mph WSW25.7 kmh WSW 19.0 mph30.6 kmh 29.90 in1012.5 mb 0.00 in0.0 mm 0.00 in0.0 mm 0.00 in0.0 mm
06:46 AM 65.1°F18.4°C 59.8°F15.4°C 83% 16.9 mph WSW27.2 kmh WSW 19.0 mph30.6 kmh 29.90 in1012.5 mb 0.00 in0.0 mm 0.00 in0.0 mm 0.00 in0.0 mm
06:45 AM 65.1°F18.4°C 59.8°F15.4°C 83% 16.7 mph WSW26.9 kmh WSW 19.0 mph30.6 kmh 29.89 in1012.2 mb 0.00 in0.0 mm 0.00 in0.0 mm 0.00 in0.0 mm
06:44 AM 65.1°F18.4°C 59.8°F15.4°C 83% 13.9 mph WSW22.4 kmh WSW 19.0 mph30.6 kmh 29.90 in1012.5 mb 0.00 in0.0 mm 0.00 in0.0 mm 0.00 in0.0 mm
06:43 AM 65.1°F18.4°C 59.8°F15.4°C 83% 15.9 mph W25.6 kmh W 19.0 mph30.6 kmh 29.90 in1012.5 mb 0.00 in0.0 mm 0.00 in0.0 mm 0.00 in0.0 mm
06:42 AM 65.0°F18.3°C 59.7°F15.4°C 83% 13.6 mph W21.9 kmh W 17.0 mph27.4 kmh 29.90 in1012.5 mb 0.00 in0.0 mm 0.00 in0.0 mm 0.00 in0.0 mm
06:41 AM 65.0°F18.3°C 59.7°F15.4°C 83% 13.8 mph WSW22.2 kmh WSW 16.0 mph25.7 kmh 29.90 in1012.5 mb 0.00 in0.0 mm 0.00 in0.0 mm 0.00 in0.0 mm
06:40 AM 65.1°F18.4°C 59.8°F15.4°C 83% 13.7 mph W22.0 kmh W 16.0 mph25.7 kmh 29.90 in1012.5 mb 0.00 in0.0 mm 0.00 in0.0 mm 0.00 in0.0 mm
06:39 AM 65.0°F18.3°C 59.7°F15.4°C 83% 11.1 mph W17.9 kmh W 16.0 mph25.7 kmh 29.90 in1012.5 mb 0.00 in0.0 mm 0.00 in0.0 mm 0.00 in0.0 mm
06:38 AM 65.1°F18.4°C 59.8°F15.4°C 83% 13.4 mph W21.6 kmh W 16.0 mph25.7 kmh 29.90 in1012.5 mb 0.00 in0.0 mm 0.00 in0.0 mm 0.00 in0.0 mm
06:37 AM 65.1°F18.4°C 60.1°F15.6°C 84% 13.2 mph W21.2 kmh W 17.0 mph27.4 kmh 29.90 in1012.5 mb 0.00 in0.0 mm 0.00 in0.0 mm 0.00 in0.0 mm
06:36 AM 65.1°F18.4°C 59.8°F15.4°C 83% 13.6 mph W21.9 kmh W 17.0 mph27.4 kmh 29.90 in1012.5 mb 0.00 in0.0 mm 0.00 in0.0 mm 0.00 in0.0 mm
06:35 AM 65.1°F18.4°C 59.8°F15.4°C 83% 14.5 mph W23.3 kmh W 17.0 mph27.4 kmh 29.90 in1012.5 mb 0.00 in0.0 mm 0.00 in0.0 mm 0.00 in0.0 mm
06:34 AM 65.0°F18.3°C 60.0°F15.6°C 84% 13.7 mph W22.0 kmh W 17.0 mph27.4 kmh 29.90 in1012.5 mb 0.00 in0.0 mm 0.00 in0.0 mm 0.00 in0.0 mm
06:33 AM 65.0°F18.3°C 60.0°F15.6°C 84% 13.4 mph W21.6 kmh W 17.0 mph27.4 kmh 29.90 in1012.5 mb 0.00 in0.0 mm 0.00 in0.0 mm 0.00 in0.0 mm
06:32 AM 65.0°F18.3°C 59.7°F15.4°C 83% 13.3 mph W21.4 kmh W 17.0 mph27.4 kmh 29.90 in1012.5 mb 0.00 in0.0 mm 0.00 in0.0 mm 0.00 in0.0 mm
06:31 AM 65.0°F18.3°C 60.0°F15.6°C 84% 11.7 mph W18.8 kmh W 16.0 mph25.7 kmh 29.90 in1012.5 mb 0.00 in0.0 mm 0.00 in0.0 mm 0.00 in0.0 mm
06:30 AM 65.0°F18.3°C 60.0°F15.6°C 84% 12.5 mph W20.1 kmh W 17.0 mph27.4 kmh 29.90 in1012.5 mb 0.00 in0.0 mm 0.00 in0.0 mm 0.00 in0.0 mm
06:29 AM 64.9°F18.3°C 59.9°F15.5°C 84% 12.7 mph W20.4 kmh W 17.0 mph27.4 kmh 29.90 in1012.5 mb 0.00 in0.0 mm 0.00 in0.0 mm 0.00 in0.0 mm
06:28 AM 64.9°F18.3°C 59.9°F15.5°C 84% 13.8 mph W22.2 kmh W 17.0 mph27.4 kmh 29.90 in1012.5 mb 0.00 in0.0 mm 0.00 in0.0 mm 0.00 in0.0 mm
06:27 AM 64.9°F18.3°C 59.6°F15.3°C 83% 14.0 mph W22.5 kmh W 17.0 mph27.4 kmh 29.90 in1012.5 mb 0.00 in0.0 mm 0.00 in0.0 mm 0.00 in0.0 mm
06:26 AM 64.9°F18.3°C 59.9°F15.5°C 84% 13.9 mph W22.4 kmh W 16.0 mph25.7 kmh 29.90 in1012.5 mb 0.00 in0.0 mm 0.00 in0.0 mm 0.00 in0.0 mm
06:25 AM 64.9°F18.3°C 59.6°F15.3°C 83% 12.9 mph W20.8 kmh W 16.0 mph25.7 kmh 29.90 in1012.5 mb 0.00 in0.0 mm 0.00 in0.0 mm 0.00 in0.0 mm
06:24 AM 64.9°F18.3°C 59.9°F15.5°C 84% 13.7 mph W22.0 kmh W 16.0 mph25.7 kmh 29.90 in1012.5 mb 0.00 in0.0 mm 0.00 in0.0 mm 0.00 in0.0 mm
06:23 AM 64.9°F18.3°C 59.9°F15.5°C 84% 13.5 mph W21.7 kmh W 16.0 mph25.7 kmh 29.90 in1012.5 mb 0.00 in0.0 mm 0.00 in0.0 mm 0.00 in0.0 mm
06:22 AM 64.9°F18.3°C 59.6°F15.3°C 83% 13.8 mph W22.2 kmh W 17.0 mph27.4 kmh 29.90 in1012.5 mb 0.00 in0.0 mm 0.00 in0.0 mm 0.00 in0.0 mm
06:21 AM 64.8°F18.2°C 59.5°F15.3°C 83% 14.1 mph W22.7 kmh W 18.0 mph29.0 kmh 29.90 in1012.5 mb 0.00 in0.0 mm 0.00 in0.0 mm 0.00 in0.0 mm
06:20 AM 64.8°F18.2°C 59.5°F15.3°C 83% 15.3 mph W24.6 kmh W 18.0 mph29.0 kmh 29.90 in1012.5 mb 0.00 in0.0 mm 0.00 in0.0 mm 0.00 in0.0 mm
06:19 AM 64.8°F18.2°C 59.5°F15.3°C 83% 14.9 mph W24.0 kmh W 17.0 mph27.4 kmh 29.90 in1012.5 mb 0.00 in0.0 mm 0.00 in0.0 mm 0.00 in0.0 mm
06:18 AM 64.7°F18.2°C 59.4°F15.2°C 83% 14.9 mph W24.0 kmh W 17.0 mph27.4 kmh 29.90 in1012.5 mb 0.00 in0.0 mm 0.00 in0.0 mm 0.00 in0.0 mm
06:17 AM 64.8°F18.2°C 59.5°F15.3°C 83% 12.1 mph W19.5 kmh W 20.0 mph32.2 kmh 29.90 in1012.5 mb 0.00 in0.0 mm 0.00 in0.0 mm 0.00 in0.0 mm
06:16 AM 64.8°F18.2°C 59.5°F15.3°C 83% 17.5 mph WSW28.2 kmh WSW 20.0 mph32.2 kmh 29.90 in1012.5 mb 0.00 in0.0 mm 0.00 in0.0 mm 0.00 in0.0 mm
06:15 AM 64.8°F18.2°C 59.5°F15.3°C 83% 16.4 mph W26.4 kmh W 20.0 mph32.2 kmh 29.90 in1012.5 mb 0.00 in0.0 mm 0.00 in0.0 mm 0.00 in0.0 mm
06:14 AM 64.9°F18.3°C 59.6°F15.3°C 83% 17.1 mph W27.5 kmh W 20.0 mph32.2 kmh 29.90 in1012.5 mb 0.00 in0.0 mm 0.00 in0.0 mm 0.00 in0.0 mm
06:13 AM 64.9°F18.3°C 59.6°F15.3°C 83% 13.7 mph W22.0 kmh W 19.0 mph30.6 kmh 29.90 in1012.5 mb 0.00 in0.0 mm 0.00 in0.0 mm 0.00 in0.0 mm
06:12 AM 64.8°F18.2°C 59.5°F15.3°C 83% 16.5 mph W26.6 kmh W 19.0 mph30.6 kmh 29.90 in1012.5 mb 0.00 in0.0 mm 0.00 in0.0 mm 0.00 in0.0 mm
06:11 AM 64.9°F18.3°C 59.6°F15.3°C 83% 14.7 mph W23.7 kmh W 19.0 mph30.6 kmh 29.90 in1012.5 mb 0.00 in0.0 mm 0.00 in0.0 mm 0.00 in0.0 mm
06:10 AM 64.8°F18.2°C 59.5°F15.3°C 83% 13.5 mph W21.7 kmh W 16.0 mph25.7 kmh 29.90 in1012.5 mb 0.00 in0.0 mm 0.00 in0.0 mm 0.00 in0.0 mm
06:09 AM 64.9°F18.3°C 59.9°F15.5°C 84% 12.9 mph W20.8 kmh W 16.0 mph25.7 kmh 29.90 in1012.5 mb 0.00 in0.0 mm 0.00 in0.0 mm 0.00 in0.0 mm
06:08 AM 64.8°F18.2°C 59.5°F15.3°C 83% 13.5 mph WNW21.7 kmh WNW 18.0 mph29.0 kmh 29.90 in1012.5 mb 0.00 in0.0 mm 0.00 in0.0 mm 0.00 in0.0 mm
06:07 AM 64.7°F18.2°C 59.4°F15.2°C 83% 13.8 mph W22.2 kmh W 18.0 mph29.0 kmh 29.90 in1012.5 mb 0.00 in0.0 mm 0.00 in0.0 mm 0.00 in0.0 mm
06:06 AM 64.8°F18.2°C 59.5°F15.3°C 83% 16.3 mph W26.2 kmh W 18.0 mph29.0 kmh 29.90 in1012.5 mb 0.00 in0.0 mm 0.00 in0.0 mm 0.00 in0.0 mm
06:05 AM 64.8°F18.2°C 59.8°F15.4°C 84% 14.6 mph W23.5 kmh W 16.0 mph25.7 kmh 29.90 in1012.5 mb 0.00 in0.0 mm 0.00 in0.0 mm 0.00 in0.0 mm
06:04 AM 64.8°F18.2°C 59.5°F15.3°C 83% 13.6 mph W21.9 kmh W 15.0 mph24.1 kmh 29.90 in1012.5 mb 0.00 in0.0 mm 0.00 in0.0 mm 0.00 in0.0 mm
06:03 AM 64.8°F18.2°C 59.5°F15.3°C 83% 11.5 mph W18.5 kmh W 17.0 mph27.4 kmh 29.90 in1012.5 mb 0.00 in0.0 mm 0.00 in0.0 mm 0.00 in0.0 mm
06:02 AM 64.8°F18.2°C 59.8°F15.4°C 84% 14.1 mph W22.7 kmh W 17.0 mph27.4 kmh 29.89 in1012.2 mb 0.00 in0.0 mm 0.00 in0.0 mm 0.00 in0.0 mm
06:01 AM 64.8°F18.2°C 59.8°F15.4°C 84% 11.4 mph W18.3 kmh W 17.0 mph27.4 kmh 29.90 in1012.5 mb 0.00 in0.0 mm 0.00 in0.0 mm 0.00 in0.0 mm
06:00 AM 64.7°F18.2°C 59.4°F15.2°C 83% 10.8 mph W17.4 kmh W 19.0 mph30.6 kmh 29.90 in1012.5 mb 0.00 in0.0 mm 0.00 in0.0 mm 0.00 in0.0 mm
05:59 AM 64.6°F18.1°C 59.3°F15.2°C 83% 14.1 mph W22.7 kmh W 19.0 mph30.6 kmh 29.89 in1012.2 mb 0.00 in0.0 mm 0.00 in0.0 mm 0.00 in0.0 mm
05:58 AM 64.6°F18.1°C 59.3°F15.2°C 83% 13.9 mph W22.4 kmh W 19.0 mph30.6 kmh 29.90 in1012.5 mb 0.00 in0.0 mm 0.00 in0.0 mm 0.00 in0.0 mm
05:57 AM 64.6°F18.1°C 59.7°F15.4°C 84% 13.5 mph W21.7 kmh W 18.0 mph29.0 kmh 29.90 in1012.5 mb 0.00 in0.0 mm 0.00 in0.0 mm 0.00 in0.0 mm
05:56 AM 64.7°F18.2°C 59.7°F15.4°C 84% 13.7 mph W22.0 kmh W 18.0 mph29.0 kmh 29.90 in1012.5 mb 0.00 in0.0 mm 0.00 in0.0 mm 0.00 in0.0 mm
05:55 AM 64.7°F18.2°C 59.7°F15.4°C 84% 12.5 mph W20.1 kmh W 17.0 mph27.4 kmh 29.90 in1012.5 mb 0.00 in0.0 mm 0.00 in0.0 mm 0.00 in0.0 mm
05:54 AM 64.7°F18.2°C 59.7°F15.4°C 84% 12.7 mph W20.4 kmh W 15.0 mph24.1 kmh 29.90 in1012.5 mb 0.00 in0.0 mm 0.00 in0.0 mm 0.00 in0.0 mm
05:53 AM 64.6°F18.1°C 59.7°F15.4°C 84% 11.5 mph W18.5 kmh W 14.0 mph22.5 kmh 29.90 in1012.5 mb 0.00 in0.0 mm 0.00 in0.0 mm 0.00 in0.0 mm
05:52 AM 64.7°F18.2°C 59.7°F15.4°C 84% 11.6 mph W18.7 kmh W 15.0 mph24.1 kmh 29.90 in1012.5 mb 0.00 in0.0 mm 0.00 in0.0 mm 0.00 in0.0 mm
05:51 AM 64.7°F18.2°C 59.7°F15.4°C 84% 11.2 mph W18.0 kmh W 15.0 mph24.1 kmh 29.90 in1012.5 mb 0.00 in0.0 mm 0.00 in0.0 mm 0.00 in0.0 mm
05:50 AM 64.6°F18.1°C 59.7°F15.4°C 84% 11.7 mph W18.8 kmh W 14.0 mph22.5 kmh 29.90 in1012.5 mb 0.00 in0.0 mm 0.00 in0.0 mm 0.00 in0.0 mm
05:49 AM 64.6°F18.1°C 59.7°F15.4°C 84% 12.0 mph W19.3 kmh W 15.0 mph24.1 kmh 29.90 in1012.5 mb 0.00 in0.0 mm 0.00 in0.0 mm 0.00 in0.0 mm
05:48 AM 64.6°F18.1°C 59.7°F15.4°C 84% 11.7 mph WSW18.8 kmh WSW 16.0 mph25.7 kmh 29.90 in1012.5 mb 0.00 in0.0 mm 0.00 in0.0 mm 0.00 in0.0 mm
05:47 AM 64.5°F18.1°C 59.6°F15.3°C 84% 12.5 mph W20.1 kmh W 17.0 mph27.4 kmh 29.90 in1012.5 mb 0.00 in0.0 mm 0.00 in0.0 mm 0.00 in0.0 mm
05:46 AM 64.5°F18.1°C 59.6°F15.3°C 84% 14.6 mph W23.5 kmh W 17.0 mph27.4 kmh 29.90 in1012.5 mb 0.00 in0.0 mm 0.00 in0.0 mm 0.00 in0.0 mm
05:45 AM 64.5°F18.1°C 59.6°F15.3°C 84% 15.8 mph W25.4 kmh W 19.0 mph30.6 kmh 29.90 in1012.5 mb 0.00 in0.0 mm 0.00 in0.0 mm 0.00 in0.0 mm
05:44 AM 64.5°F18.1°C 59.6°F15.3°C 84% 16.0 mph W25.7 kmh W 19.0 mph30.6 kmh 29.90 in1012.5 mb 0.00 in0.0 mm 0.00 in0.0 mm 0.00 in0.0 mm
05:43 AM 64.6°F18.1°C 60.0°F15.6°C 85% 11.8 mph WSW19.0 kmh WSW 15.0 mph24.1 kmh 29.90 in1012.5 mb 0.00 in0.0 mm 0.00 in0.0 mm 0.00 in0.0 mm
05:42 AM 64.6°F18.1°C 59.7°F15.4°C 84% 12.8 mph W20.6 kmh W 16.0 mph25.7 kmh 29.90 in1012.5 mb 0.00 in0.0 mm 0.00 in0.0 mm 0.00 in0.0 mm
05:41 AM 64.5°F18.1°C 59.6°F15.3°C 84% 13.6 mph W21.9 kmh W 16.0 mph25.7 kmh 29.90 in1012.5 mb 0.00 in0.0 mm 0.00 in0.0 mm 0.00 in0.0 mm
05:40 AM 64.6°F18.1°C 60.0°F15.6°C 85% 11.3 mph W18.2 kmh W 14.0 mph22.5 kmh 29.90 in1012.5 mb 0.00 in0.0 mm 0.00 in0.0 mm 0.00 in0.0 mm
05:39 AM 64.6°F18.1°C 60.0°F15.6°C 85% 9.8 mph W15.8 kmh W 13.0 mph20.9 kmh 29.90 in1012.5 mb 0.00 in0.0 mm 0.00 in0.0 mm 0.00 in0.0 mm
05:38 AM 64.6°F18.1°C 60.0°F15.6°C 85% 9.9 mph W15.9 kmh W 12.0 mph19.3 kmh 29.90 in1012.5 mb 0.00 in0.0 mm 0.00 in0.0 mm 0.00 in0.0 mm
05:37 AM 64.5°F18.1°C 59.9°F15.5°C 85% 9.7 mph W15.6 kmh W 14.0 mph22.5 kmh 29.90 in1012.5 mb 0.00 in0.0 mm 0.00 in0.0 mm 0.00 in0.0 mm
05:36 AM 64.5°F18.1°C 59.9°F15.5°C 85% 11.7 mph W18.8 kmh W 14.0 mph22.5 kmh 29.90 in1012.5 mb 0.00 in0.0 mm 0.00 in0.0 mm 0.00 in0.0 mm
05:35 AM 64.5°F18.1°C 59.9°F15.5°C 85% 11.9 mph W19.2 kmh W 14.0 mph22.5 kmh 29.90 in1012.5 mb 0.00 in0.0 mm 0.00 in0.0 mm 0.00 in0.0 mm
05:34 AM 64.4°F18.0°C 59.8°F15.4°C 85% 11.5 mph W18.5 kmh W 16.0 mph25.7 kmh 29.90 in1012.5 mb 0.00 in0.0 mm 0.00 in0.0 mm 0.00 in0.0 mm
05:33 AM 64.3°F17.9°C 59.7°F15.4°C 85% 13.2 mph W21.2 kmh W 16.0 mph25.7 kmh 29.90 in1012.5 mb 0.00 in0.0 mm 0.00 in0.0 mm 0.00 in0.0 mm
05:32 AM 64.3°F17.9°C 59.7°F15.4°C 85% 12.0 mph W19.3 kmh W 18.0 mph29.0 kmh 29.90 in1012.5 mb 0.00 in0.0 mm 0.00 in0.0 mm 0.00 in0.0 mm
05:31 AM 64.2°F17.9°C 59.6°F15.3°C 85% 14.5 mph W23.3 kmh W 18.0 mph29.0 kmh 29.90 in1012.5 mb 0.00 in0.0 mm 0.00 in0.0 mm 0.00 in0.0 mm
05:30 AM 64.2°F17.9°C 59.6°F15.3°C 85% 15.1 mph WSW24.3 kmh WSW 18.0 mph29.0 kmh 29.90 in1012.5 mb 0.00 in0.0 mm 0.00 in0.0 mm 0.00 in0.0 mm
05:29 AM 64.2°F17.9°C 59.6°F15.3°C 85% 12.6 mph W20.3 kmh W 17.0 mph27.4 kmh 29.90 in1012.5 mb 0.00 in0.0 mm 0.00 in0.0 mm 0.00 in0.0 mm
05:28 AM 64.1°F17.8°C 59.5°F15.3°C 85% 14.6 mph W23.5 kmh W 17.0 mph27.4 kmh 29.90 in1012.5 mb 0.00 in0.0 mm 0.00 in0.0 mm 0.00 in0.0 mm
05:27 AM 64.1°F17.8°C 59.5°F15.3°C 85% 14.1 mph WSW22.7 kmh WSW 17.0 mph27.4 kmh 29.90 in1012.5 mb 0.00 in0.0 mm 0.00 in0.0 mm 0.00 in0.0 mm
05:26 AM 64.1°F17.8°C 59.8°F15.4°C 86% 13.2 mph WSW21.2 kmh WSW 18.0 mph29.0 kmh 29.90 in1012.5 mb 0.00 in0.0 mm 0.00 in0.0 mm 0.00 in0.0 mm
05:25 AM 64.1°F17.8°C 59.8°F15.4°C 86% 15.5 mph W24.9 kmh W 18.0 mph29.0 kmh 29.90 in1012.5 mb 0.00 in0.0 mm 0.00 in0.0 mm 0.00 in0.0 mm
05:24 AM 64.1°F17.8°C 59.8°F15.4°C 86% 15.4 mph WSW24.8 kmh WSW 18.0 mph29.0 kmh 29.90 in1012.5 mb 0.00 in0.0 mm 0.00 in0.0 mm 0.00 in0.0 mm
05:23 AM 64.1°F17.8°C 59.8°F15.4°C 86% 15.5 mph W24.9 kmh W 18.0 mph29.0 kmh 29.90 in1012.5 mb 0.00 in0.0 mm 0.00 in0.0 mm 0.00 in0.0 mm
05:22 AM 64.1°F17.8°C 59.8°F15.4°C 86% 13.8 mph WSW22.2 kmh WSW 17.0 mph27.4 kmh 29.90 in1012.5 mb 0.00 in0.0 mm 0.00 in0.0 mm 0.00 in0.0 mm
05:21 AM 64.1°F17.8°C 60.1°F15.6°C 87% 11.5 mph W18.5 kmh W 13.0 mph20.9 kmh 29.90 in1012.5 mb 0.00 in0.0 mm 0.00 in0.0 mm 0.00 in0.0 mm
05:20 AM 64.1°F17.8°C 60.1°F15.6°C 87% 9.9 mph W15.9 kmh W 13.0 mph20.9 kmh 29.90 in1012.5 mb 0.00 in0.0 mm 0.00 in0.0 mm 0.00 in0.0 mm
05:19 AM 64.1°F17.8°C 60.1°F15.6°C 87% 10.0 mph W16.1 kmh W 12.0 mph19.3 kmh 29.90 in1012.5 mb 0.00 in0.0 mm 0.00 in0.0 mm 0.00 in0.0 mm
05:18 AM 64.0°F17.8°C 60.0°F15.6°C 87% 8.0 mph W12.9 kmh W 10.0 mph16.1 kmh 29.90 in1012.5 mb 0.00 in0.0 mm 0.00 in0.0 mm 0.00 in0.0 mm
05:17 AM 64.0°F17.8°C 60.0°F15.6°C 87% 8.5 mph W13.7 kmh W 11.0 mph17.7 kmh 29.90 in1012.5 mb 0.00 in0.0 mm 0.00 in0.0 mm 0.00 in0.0 mm
05:16 AM 63.9°F17.7°C 60.0°F15.6°C 87% 9.6 mph W15.4 kmh W 12.0 mph19.3 kmh 29.90 in1012.5 mb 0.00 in0.0 mm 0.00 in0.0 mm 0.00 in0.0 mm
05:15 AM 63.9°F17.7°C 60.0°F15.6°C 87% 10.4 mph W16.7 kmh W 12.0 mph19.3 kmh 29.90 in1012.5 mb 0.00 in0.0 mm 0.00 in0.0 mm 0.00 in0.0 mm
05:14 AM 63.8°F17.7°C 59.9°F15.5°C 87% 8.5 mph W13.7 kmh W 11.0 mph17.7 kmh 29.90 in1012.5 mb 0.00 in0.0 mm 0.00 in0.0 mm 0.00 in0.0 mm
05:13 AM 63.9°F17.7°C 60.0°F15.6°C 87% 7.2 mph W11.6 kmh W 9.0 mph14.5 kmh 29.90 in1012.5 mb 0.00 in0.0 mm 0.00 in0.0 mm 0.00 in0.0 mm
05:12 AM 63.9°F17.7°C 60.0°F15.6°C 87% 7.6 mph W12.2 kmh W 9.0 mph14.5 kmh 29.90 in1012.5 mb 0.00 in0.0 mm 0.00 in0.0 mm 0.00 in0.0 mm
05:11 AM 63.9°F17.7°C 60.0°F15.6°C 87% 6.8 mph W10.9 kmh W 9.0 mph14.5 kmh 29.90 in1012.5 mb 0.00 in0.0 mm 0.00 in0.0 mm 0.00 in0.0 mm
05:10 AM 63.9°F17.7°C 60.0°F15.6°C 87% 6.0 mph W9.7 kmh W 11.0 mph17.7 kmh 29.90 in1012.5 mb 0.00 in0.0 mm 0.00 in0.0 mm 0.00 in0.0 mm
05:09 AM 63.9°F17.7°C 60.0°F15.6°C 87% 9.1 mph WNW14.6 kmh WNW 11.0 mph17.7 kmh 29.90 in1012.5 mb 0.00 in0.0 mm 0.00 in0.0 mm 0.00 in0.0 mm
05:08 AM 63.9°F17.7°C 60.0°F15.6°C 87% 7.5 mph WNW12.1 kmh WNW 10.0 mph16.1 kmh 29.90 in1012.5 mb 0.00 in0.0 mm 0.00 in0.0 mm 0.00 in0.0 mm
05:07 AM 63.9°F17.7°C 60.0°F15.6°C 87% 8.3 mph W13.4 kmh W 10.0 mph16.1 kmh 29.90 in1012.5 mb 0.00 in0.0 mm 0.00 in0.0 mm 0.00 in0.0 mm
05:06 AM 63.9°F17.7°C 60.0°F15.6°C 87% 9.1 mph W14.6 kmh W 10.0 mph16.1 kmh 29.90 in1012.5 mb 0.00 in0.0 mm 0.00 in0.0 mm 0.00 in0.0 mm
05:05 AM 63.9°F17.7°C 60.0°F15.6°C 87% 8.3 mph W13.4 kmh W 10.0 mph16.1 kmh 29.90 in1012.5 mb 0.00 in0.0 mm 0.00 in0.0 mm 0.00 in0.0 mm
05:04 AM 63.9°F17.7°C 60.0°F15.6°C 87% 5.7 mph W9.2 kmh W 9.0 mph14.5 kmh 29.90 in1012.5 mb 0.00 in0.0 mm 0.00 in0.0 mm 0.00 in0.0 mm
05:03 AM 63.8°F17.7°C 59.9°F15.5°C 87% 6.9 mph W11.1 kmh W 10.0 mph16.1 kmh 29.90 in1012.5 mb 0.00 in0.0 mm 0.00 in0.0 mm 0.00 in0.0 mm
05:02 AM 63.8°F17.7°C 59.5°F15.3°C 86% 8.7 mph W14.0 kmh W 11.0 mph17.7 kmh 29.89 in1012.2 mb 0.00 in0.0 mm 0.00 in0.0 mm 0.00 in0.0 mm
05:01 AM 63.8°F17.7°C 59.9°F15.5°C 87% 9.0 mph W14.5 kmh W 11.0 mph17.7 kmh 29.89 in1012.2 mb 0.00 in0.0 mm 0.00 in0.0 mm 0.00 in0.0 mm
05:00 AM 63.9°F17.7°C 60.0°F15.6°C 87% 8.7 mph W14.0 kmh W 11.0 mph17.7 kmh 29.89 in1012.2 mb 0.00 in0.0 mm 0.00 in0.0 mm 0.00 in0.0 mm
04:59 AM 63.8°F17.7°C 59.9°F15.5°C 87% 8.7 mph WSW14.0 kmh WSW 10.0 mph16.1 kmh 29.89 in1012.2 mb 0.00 in0.0 mm 0.00 in0.0 mm 0.00 in0.0 mm
04:58 AM 63.8°F17.7°C 59.9°F15.5°C 87% 7.1 mph W11.4 kmh W 10.0 mph16.1 kmh 29.89 in1012.2 mb 0.00 in0.0 mm 0.00 in0.0 mm 0.00 in0.0 mm
04:57 AM 63.8°F17.7°C 59.9°F15.5°C 87% 8.8 mph W14.2 kmh W 11.0 mph17.7 kmh 29.89 in1012.2 mb 0.00 in0.0 mm 0.00 in0.0 mm 0.00 in0.0 mm
04:56 AM 63.7°F17.6°C 59.8°F15.4°C 87% 9.4 mph W15.1 kmh W 12.0 mph19.3 kmh 29.90 in1012.5 mb 0.00 in0.0 mm 0.00 in0.0 mm 0.00 in0.0 mm
04:55 AM 63.8°F17.7°C 59.9°F15.5°C 87% 10.1 mph W16.3 kmh W 12.0 mph19.3 kmh 29.89 in1012.2 mb 0.00 in0.0 mm 0.00 in0.0 mm 0.00 in0.0 mm
04:54 AM 63.8°F17.7°C 59.9°F15.5°C 87% 8.1 mph W13.0 kmh W 12.0 mph19.3 kmh 29.89 in1012.2 mb 0.00 in0.0 mm 0.00 in0.0 mm 0.00 in0.0 mm
04:53 AM 63.8°F17.7°C 59.9°F15.5°C 87% 8.9 mph W14.3 kmh W 12.0 mph19.3 kmh 29.89 in1012.2 mb 0.00 in0.0 mm 0.00 in0.0 mm 0.00 in0.0 mm
04:52 AM 63.8°F17.7°C 59.9°F15.5°C 87% 9.5 mph W15.3 kmh W 11.0 mph17.7 kmh 29.89 in1012.2 mb 0.00 in0.0 mm 0.00 in0.0 mm 0.00 in0.0 mm
04:51 AM 63.8°F17.7°C 59.9°F15.5°C 87% 8.1 mph W13.0 kmh W 10.0 mph16.1 kmh 29.89 in1012.2 mb 0.00 in0.0 mm 0.00 in0.0 mm 0.00 in0.0 mm
04:50 AM 63.8°F17.7°C 59.9°F15.5°C 87% 8.4 mph W13.5 kmh W 13.0 mph20.9 kmh 29.89 in1012.2 mb 0.00 in0.0 mm 0.00 in0.0 mm 0.00 in0.0 mm
04:49 AM 63.8°F17.7°C 59.9°F15.5°C 87% 10.9 mph W17.5 kmh W 13.0 mph20.9 kmh 29.89 in1012.2 mb 0.00 in0.0 mm 0.00 in0.0 mm 0.00 in0.0 mm
04:48 AM 63.7°F17.6°C 59.8°F15.4°C 87% 11.1 mph WNW17.9 kmh WNW 12.0 mph19.3 kmh 29.89 in1012.2 mb 0.00 in0.0 mm 0.00 in0.0 mm 0.00 in0.0 mm
04:47 AM 63.8°F17.7°C 59.9°F15.5°C 87% 10.0 mph W16.1 kmh W 12.0 mph19.3 kmh 29.89 in1012.2 mb 0.00 in0.0 mm 0.00 in0.0 mm 0.00 in0.0 mm
04:46 AM 63.8°F17.7°C 59.9°F15.5°C 87% 7.8 mph W12.6 kmh W 12.0 mph19.3 kmh 29.89 in1012.2 mb 0.00 in0.0 mm 0.00 in0.0 mm 0.00 in0.0 mm
04:45 AM 63.7°F17.6°C 59.8°F15.4°C 87% 10.8 mph WNW17.4 kmh WNW 12.0 mph19.3 kmh 29.89 in1012.2 mb 0.00 in0.0 mm 0.00 in0.0 mm 0.00 in0.0 mm
04:44 AM 63.7°F17.6°C 59.8°F15.4°C 87% 10.5 mph W16.9 kmh W 12.0 mph19.3 kmh 29.89 in1012.2 mb 0.00 in0.0 mm 0.00 in0.0 mm 0.00 in0.0 mm
04:43 AM 63.6°F17.6°C 59.3°F15.2°C 86% 8.7 mph W14.0 kmh W 14.0 mph22.5 kmh 29.89 in1012.2 mb 0.00 in0.0 mm 0.00 in0.0 mm 0.00 in0.0 mm
04:42 AM 63.7°F17.6°C 59.8°F15.4°C 87% 10.9 mph W17.5 kmh W 14.0 mph22.5 kmh 29.89 in1012.2 mb 0.00 in0.0 mm 0.00 in0.0 mm 0.00 in0.0 mm
04:41 AM 63.7°F17.6°C 59.8°F15.4°C 87% 8.6 mph W13.8 kmh W 13.0 mph20.9 kmh 29.89 in1012.2 mb 0.00 in0.0 mm 0.00 in0.0 mm 0.00 in0.0 mm
04:40 AM 63.6°F17.6°C 59.7°F15.4°C 87% 10.4 mph W16.7 kmh W 13.0 mph20.9 kmh 29.89 in1012.2 mb 0.00 in0.0 mm 0.00 in0.0 mm 0.00 in0.0 mm
04:39 AM 63.6°F17.6°C 59.7°F15.4°C 87% 9.4 mph WNW15.1 kmh WNW 12.0 mph19.3 kmh 29.90 in1012.5 mb 0.00 in0.0 mm 0.00 in0.0 mm 0.00 in0.0 mm
04:38 AM 63.6°F17.6°C 59.3°F15.2°C 86% 10.4 mph W16.7 kmh W 12.0 mph19.3 kmh 29.89 in1012.2 mb 0.00 in0.0 mm 0.00 in0.0 mm 0.00 in0.0 mm
04:37 AM 63.6°F17.6°C 59.7°F15.4°C 87% 10.7 mph W17.2 kmh W 12.0 mph19.3 kmh 29.90 in1012.5 mb 0.00 in0.0 mm 0.00 in0.0 mm 0.00 in0.0 mm
04:36 AM 63.6°F17.6°C 59.7°F15.4°C 87% 7.6 mph W12.2 kmh W 11.0 mph17.7 kmh 29.89 in1012.2 mb 0.00 in0.0 mm 0.00 in0.0 mm 0.00 in0.0 mm
04:35 AM 63.6°F17.6°C 59.7°F15.4°C 87% 9.1 mph WNW14.6 kmh WNW 11.0 mph17.7 kmh 29.89 in1012.2 mb 0.00 in0.0 mm 0.00 in0.0 mm 0.00 in0.0 mm
04:34 AM 63.6°F17.6°C 59.7°F15.4°C 87% 9.6 mph WNW15.4 kmh WNW 12.0 mph19.3 kmh 29.89 in1012.2 mb 0.00 in0.0 mm 0.00 in0.0 mm 0.00 in0.0 mm
04:33 AM 63.6°F17.6°C 59.3°F15.2°C 86% 9.2 mph WNW14.8 kmh WNW 12.0 mph19.3 kmh 29.89 in1012.2 mb 0.00 in0.0 mm 0.00 in0.0 mm 0.00 in0.0 mm
04:32 AM 63.6°F17.6°C 59.3°F15.2°C 86% 9.1 mph WNW14.6 kmh WNW 12.0 mph19.3 kmh 29.89 in1012.2 mb 0.00 in0.0 mm 0.00 in0.0 mm 0.00 in0.0 mm
04:31 AM 63.6°F17.6°C 59.3°F15.2°C 86% 9.7 mph W15.6 kmh W 12.0 mph19.3 kmh 29.89 in1012.2 mb 0.00 in0.0 mm 0.00 in0.0 mm 0.00 in0.0 mm
04:30 AM 63.7°F17.6°C 59.4°F15.2°C 86% 10.1 mph WNW16.3 kmh WNW 12.0 mph19.3 kmh 29.89 in1012.2 mb 0.00 in0.0 mm 0.00 in0.0 mm 0.00 in0.0 mm
04:29 AM 63.7°F17.6°C 59.4°F15.2°C 86% 10.3 mph WNW16.6 kmh WNW 13.0 mph20.9 kmh 29.90 in1012.5 mb 0.00 in0.0 mm 0.00 in0.0 mm 0.00 in0.0 mm
04:28 AM 63.8°F17.7°C 59.9°F15.5°C 87% 10.4 mph WNW16.7 kmh WNW 13.0 mph20.9 kmh 29.90 in1012.5 mb 0.00 in0.0 mm 0.00 in0.0 mm 0.00 in0.0 mm
04:27 AM 63.8°F17.7°C 59.9°F15.5°C 87% 9.6 mph WNW15.4 kmh WNW 14.0 mph22.5 kmh 29.89 in1012.2 mb 0.00 in0.0 mm 0.00 in0.0 mm 0.00 in0.0 mm
04:26 AM 63.7°F17.6°C 59.8°F15.4°C 87% 10.8 mph WNW17.4 kmh WNW 14.0 mph22.5 kmh 29.89 in1012.2 mb 0.00 in0.0 mm 0.00 in0.0 mm 0.00 in0.0 mm
04:25 AM 63.7°F17.6°C 59.8°F15.4°C 87% 11.4 mph WNW18.3 kmh WNW 12.0 mph19.3 kmh 29.89 in1012.2 mb 0.00 in0.0 mm 0.00 in0.0 mm 0.00 in0.0 mm
04:24 AM 63.7°F17.6°C 59.8°F15.4°C 87% 9.7 mph WNW15.6 kmh WNW 14.0 mph22.5 kmh 29.89 in1012.2 mb 0.00 in0.0 mm 0.00 in0.0 mm 0.00 in0.0 mm
04:23 AM 63.6°F17.6°C 59.3°F15.2°C 86% 11.5 mph WNW18.5 kmh WNW 16.0 mph25.7 kmh 29.89 in1012.2 mb 0.00 in0.0 mm 0.00 in0.0 mm 0.00 in0.0 mm
04:22 AM 63.7°F17.6°C 59.4°F15.2°C 86% 14.4 mph WNW23.2 kmh WNW 16.0 mph25.7 kmh 29.89 in1012.2 mb 0.00 in0.0 mm 0.00 in0.0 mm 0.00 in0.0 mm
04:21 AM 63.7°F17.6°C 59.4°F15.2°C 86% 11.0 mph WNW17.7 kmh WNW 13.0 mph20.9 kmh 29.89 in1012.2 mb 0.00 in0.0 mm 0.00 in0.0 mm 0.00 in0.0 mm
04:20 AM 63.7°F17.6°C 59.4°F15.2°C 86% 10.9 mph WNW17.5 kmh WNW 13.0 mph20.9 kmh 29.89 in1012.2 mb 0.00 in0.0 mm 0.00 in0.0 mm 0.00 in0.0 mm
04:19 AM 63.8°F17.7°C 59.9°F15.5°C 87% 11.5 mph WNW18.5 kmh WNW 13.0 mph20.9 kmh 29.89 in1012.2 mb 0.00 in0.0 mm 0.00 in0.0 mm 0.00 in0.0 mm
04:18 AM 63.8°F17.7°C 59.9°F15.5°C 87% 10.4 mph WNW16.7 kmh WNW 13.0 mph20.9 kmh 29.89 in1012.2 mb 0.00 in0.0 mm 0.00 in0.0 mm 0.00 in0.0 mm
04:17 AM 63.8°F17.7°C 59.9°F15.5°C 87% 11.8 mph WNW19.0 kmh WNW 13.0 mph20.9 kmh 29.89 in1012.2 mb 0.00 in0.0 mm 0.00 in0.0 mm 0.00 in0.0 mm
04:16 AM 63.8°F17.7°C 59.9°F15.5°C 87% 11.8 mph WNW19.0 kmh WNW 13.0 mph20.9 kmh 29.90 in1012.5 mb 0.00 in0.0 mm 0.00 in0.0 mm 0.00 in0.0 mm
04:15 AM 63.7°F17.6°C 59.8°F15.4°C 87% 10.5 mph WNW16.9 kmh WNW 15.0 mph24.1 kmh 29.89 in1012.2 mb 0.00 in0.0 mm 0.00 in0.0 mm 0.00 in0.0 mm
04:14 AM 63.8°F17.7°C 59.9°F15.5°C 87% 12.0 mph WNW19.3 kmh WNW 15.0 mph24.1 kmh 29.89 in1012.2 mb 0.00 in0.0 mm 0.00 in0.0 mm 0.00 in0.0 mm
04:13 AM 63.8°F17.7°C 59.9°F15.5°C 87% 11.3 mph W18.2 kmh W 14.0 mph22.5 kmh 29.89 in1012.2 mb 0.00 in0.0 mm 0.00 in0.0 mm 0.00 in0.0 mm
04:12 AM 63.7°F17.6°C 59.8°F15.4°C 87% 12.3 mph WNW19.8 kmh WNW 16.0 mph25.7 kmh 29.89 in1012.2 mb 0.00 in0.0 mm 0.00 in0.0 mm 0.00 in0.0 mm
04:11 AM 63.8°F17.7°C 59.5°F15.3°C 86% 13.6 mph WNW21.9 kmh WNW 16.0 mph25.7 kmh 29.90 in1012.5 mb 0.00 in0.0 mm 0.00 in0.0 mm 0.00 in0.0 mm
04:10 AM 63.7°F17.6°C 59.4°F15.2°C 86% 13.0 mph WNW20.9 kmh WNW 16.0 mph25.7 kmh 29.89 in1012.2 mb 0.00 in0.0 mm 0.00 in0.0 mm 0.00 in0.0 mm
04:09 AM 63.8°F17.7°C 59.9°F15.5°C 87% 13.1 mph WNW21.1 kmh WNW 16.0 mph25.7 kmh 29.89 in1012.2 mb 0.00 in0.0 mm 0.00 in0.0 mm 0.00 in0.0 mm
04:08 AM 63.8°F17.7°C 59.5°F15.3°C 86% 11.1 mph WNW17.9 kmh WNW 15.0 mph24.1 kmh 29.89 in1012.2 mb 0.00 in0.0 mm 0.00 in0.0 mm 0.00 in0.0 mm
04:07 AM 63.9°F17.7°C 59.6°F15.3°C 86% 13.0 mph WNW20.9 kmh WNW 15.0 mph24.1 kmh 29.89 in1012.2 mb 0.00 in0.0 mm 0.00 in0.0 mm 0.00 in0.0 mm
04:06 AM 64.0°F17.8°C 60.0°F15.6°C 87% 13.2 mph WNW21.2 kmh WNW 15.0 mph24.1 kmh 29.89 in1012.2 mb 0.00 in0.0 mm 0.00 in0.0 mm 0.00 in0.0 mm
04:05 AM 63.9°F17.7°C 59.6°F15.3°C 86% 11.3 mph WNW18.2 kmh WNW 14.0 mph22.5 kmh 29.89 in1012.2 mb 0.00 in0.0 mm 0.00 in0.0 mm 0.00 in0.0 mm
04:04 AM 63.9°F17.7°C 59.6°F15.3°C 86% 11.8 mph WNW19.0 kmh WNW 15.0 mph24.1 kmh 29.89 in1012.2 mb 0.00 in0.0 mm 0.00 in0.0 mm 0.00 in0.0 mm
04:03 AM 64.0°F17.8°C 59.7°F15.4°C 86% 12.4 mph NW20.0 kmh NW 15.0 mph24.1 kmh 29.89 in1012.2 mb 0.00 in0.0 mm 0.00 in0.0 mm 0.00 in0.0 mm
04:02 AM 63.9°F17.7°C 59.6°F15.3°C 86% 12.0 mph WNW19.3 kmh WNW 14.0 mph22.5 kmh 29.89 in1012.2 mb 0.00 in0.0 mm 0.00 in0.0 mm 0.00 in0.0 mm
04:01 AM 64.0°F17.8°C 59.7°F15.4°C 86% 10.9 mph NW17.5 kmh NW 14.0 mph22.5 kmh 29.89 in1012.2 mb 0.00 in0.0 mm 0.00 in0.0 mm 0.00 in0.0 mm
04:00 AM 64.0°F17.8°C 59.4°F15.2°C 85% 12.3 mph NW19.8 kmh NW 14.0 mph22.5 kmh 29.89 in1012.2 mb 0.00 in0.0 mm 0.00 in0.0 mm 0.00 in0.0 mm
03:59 AM 64.2°F17.9°C 59.9°F15.5°C 86% 11.7 mph NW18.8 kmh NW 14.0 mph22.5 kmh 29.89 in1012.2 mb 0.00 in0.0 mm 0.00 in0.0 mm 0.00 in0.0 mm
03:58 AM 64.2°F17.9°C 59.9°F15.5°C 86% 9.8 mph WNW15.8 kmh WNW 11.0 mph17.7 kmh 29.89 in1012.2 mb 0.00 in0.0 mm 0.00 in0.0 mm 0.00 in0.0 mm
03:57 AM 64.2°F17.9°C 59.9°F15.5°C 86% 10.2 mph WNW16.4 kmh WNW 12.0 mph19.3 kmh 29.89 in1012.2 mb 0.00 in0.0 mm 0.00 in0.0 mm 0.00 in0.0 mm
03:56 AM 64.1°F17.8°C 59.8°F15.4°C 86% 10.6 mph WNW17.1 kmh WNW 12.0 mph19.3 kmh 29.89 in1012.2 mb 0.00 in0.0 mm 0.00 in0.0 mm 0.00 in0.0 mm
03:55 AM 64.1°F17.8°C 59.8°F15.4°C 86% 9.6 mph WNW15.4 kmh WNW 12.0 mph19.3 kmh 29.89 in1012.2 mb 0.00 in0.0 mm 0.00 in0.0 mm 0.00 in0.0 mm
03:54 AM 64.2°F17.9°C 59.9°F15.5°C 86% 10.5 mph WNW16.9 kmh WNW 12.0 mph19.3 kmh 29.89 in1012.2 mb 0.00 in0.0 mm 0.00 in0.0 mm 0.00 in0.0 mm
03:53 AM 64.2°F17.9°C 59.9°F15.5°C 86% 9.6 mph WNW15.4 kmh WNW 12.0 mph19.3 kmh 29.89 in1012.2 mb 0.00 in0.0 mm 0.00 in0.0 mm 0.00 in0.0 mm
03:52 AM 64.2°F17.9°C 59.9°F15.5°C 86% 10.6 mph WNW17.1 kmh WNW 12.0 mph19.3 kmh 29.89 in1012.2 mb 0.00 in0.0 mm 0.00 in0.0 mm 0.00 in0.0 mm
03:51 AM 64.3°F17.9°C 60.0°F15.6°C 86% 9.9 mph W15.9 kmh W 12.0 mph19.3 kmh 29.89 in1012.2 mb 0.00 in0.0 mm 0.00 in0.0 mm 0.00 in0.0 mm
03:50 AM 64.2°F17.9°C 59.9°F15.5°C 86% 9.1 mph W14.6 kmh W 12.0 mph19.3 kmh 29.89 in1012.2 mb 0.00 in0.0 mm 0.00 in0.0 mm 0.00 in0.0 mm
03:49 AM 64.2°F17.9°C 59.9°F15.5°C 86% 11.1 mph W17.9 kmh W 13.0 mph20.9 kmh 29.89 in1012.2 mb 0.00 in0.0 mm 0.00 in0.0 mm 0.00 in0.0 mm
03:48 AM 64.3°F17.9°C 60.0°F15.6°C 86% 11.1 mph WNW17.9 kmh WNW 14.0 mph22.5 kmh 29.89 in1012.2 mb 0.00 in0.0 mm 0.00 in0.0 mm 0.00 in0.0 mm
03:47 AM 64.4°F18.0°C 60.1°F15.6°C 86% 11.9 mph WNW19.2 kmh WNW 14.0 mph22.5 kmh 29.89 in1012.2 mb 0.00 in0.0 mm 0.00 in0.0 mm 0.00 in0.0 mm
03:46 AM 64.4°F18.0°C 60.1°F15.6°C 86% 9.8 mph WNW15.8 kmh WNW 12.0 mph19.3 kmh 29.89 in1012.2 mb 0.00 in0.0 mm 0.00 in0.0 mm 0.00 in0.0 mm
03:45 AM 64.4°F18.0°C 59.8°F15.4°C 85% 9.5 mph W15.3 kmh W 13.0 mph20.9 kmh 29.89 in1012.2 mb 0.00 in0.0 mm 0.00 in0.0 mm 0.00 in0.0 mm
03:44 AM 64.4°F18.0°C 60.1°F15.6°C 86% 11.3 mph W18.2 kmh W 13.0 mph20.9 kmh 29.89 in1012.2 mb 0.00 in0.0 mm 0.00 in0.0 mm 0.00 in0.0 mm
03:43 AM 64.5°F18.1°C 60.2°F15.7°C 86% 9.4 mph W15.1 kmh W 12.0 mph19.3 kmh 29.89 in1012.2 mb 0.00 in0.0 mm 0.00 in0.0 mm 0.00 in0.0 mm
03:42 AM 64.5°F18.1°C 60.2°F15.7°C 86% 10.6 mph W17.1 kmh W 12.0 mph19.3 kmh 29.89 in1012.2 mb 0.00 in0.0 mm 0.00 in0.0 mm 0.00 in0.0 mm
03:41 AM 64.6°F18.1°C 60.3°F15.7°C 86% 10.3 mph W16.6 kmh W 12.0 mph19.3 kmh 29.89 in1012.2 mb 0.00 in0.0 mm 0.00 in0.0 mm 0.00 in0.0 mm
03:40 AM 64.6°F18.1°C 60.3°F15.7°C 86% 8.8 mph W14.2 kmh W 12.0 mph19.3 kmh 29.89 in1012.2 mb 0.00 in0.0 mm 0.00 in0.0 mm 0.00 in0.0 mm
03:39 AM 64.5°F18.1°C 60.2°F15.7°C 86% 9.0 mph W14.5 kmh W 11.0 mph17.7 kmh 29.89 in1012.2 mb 0.00 in0.0 mm 0.00 in0.0 mm 0.00 in0.0 mm
03:38 AM 64.4°F18.0°C 60.1°F15.6°C 86% 9.0 mph W14.5 kmh W 10.0 mph16.1 kmh 29.89 in1012.2 mb 0.00 in0.0 mm 0.00 in0.0 mm 0.00 in0.0 mm
03:37 AM 64.4°F18.0°C 59.8°F15.4°C 85% 8.8 mph W14.2 kmh W 10.0 mph16.1 kmh 29.89 in1012.2 mb 0.00 in0.0 mm 0.00 in0.0 mm 0.00 in0.0 mm
03:36 AM 64.4°F18.0°C 59.8°F15.4°C 85% 9.1 mph W14.6 kmh W 11.0 mph17.7 kmh 29.89 in1012.2 mb 0.00 in0.0 mm 0.00 in0.0 mm 0.00 in0.0 mm
03:35 AM 64.5°F18.1°C 59.9°F15.5°C 85% 10.2 mph W16.4 kmh W 12.0 mph19.3 kmh 29.89 in1012.2 mb 0.00 in0.0 mm 0.00 in0.0 mm 0.00 in0.0 mm
03:34 AM 64.5°F18.1°C 60.2°F15.7°C 86% 10.1 mph W16.3 kmh W 14.0 mph22.5 kmh 29.89 in1012.2 mb 0.00 in0.0 mm 0.00 in0.0 mm 0.00 in0.0 mm
03:33 AM 64.5°F18.1°C 59.9°F15.5°C 85% 11.8 mph W19.0 kmh W 14.0 mph22.5 kmh 29.89 in1012.2 mb 0.00 in0.0 mm 0.00 in0.0 mm 0.00 in0.0 mm
03:32 AM 64.5°F18.1°C 60.2°F15.7°C 86% 11.9 mph W19.2 kmh W 14.0 mph22.5 kmh 29.89 in1012.2 mb 0.00 in0.0 mm 0.00 in0.0 mm 0.00 in0.0 mm
03:31 AM 64.6°F18.1°C 60.3°F15.7°C 86% 11.5 mph W18.5 kmh W 14.0 mph22.5 kmh 29.89 in1012.2 mb 0.00 in0.0 mm 0.00 in0.0 mm 0.00 in0.0 mm
03:30 AM 64.5°F18.1°C 60.2°F15.7°C 86% 11.1 mph W17.9 kmh W 13.0 mph20.9 kmh 29.88 in1011.9 mb 0.00 in0.0 mm 0.00 in0.0 mm 0.00 in0.0 mm
03:29 AM 64.4°F18.0°C 60.1°F15.6°C 86% 9.3 mph W15.0 kmh W 11.0 mph17.7 kmh 29.88 in1011.9 mb 0.00 in0.0 mm 0.00 in0.0 mm 0.00 in0.0 mm
03:28 AM 64.5°F18.1°C 60.2°F15.7°C 86% 9.8 mph W15.8 kmh W 11.0 mph17.7 kmh 29.88 in1011.9 mb 0.00 in0.0 mm 0.00 in0.0 mm 0.00 in0.0 mm
03:27 AM 64.4°F18.0°C 60.1°F15.6°C 86% 8.5 mph W13.7 kmh W 12.0 mph19.3 kmh 29.88 in1011.9 mb 0.00 in0.0 mm 0.00 in0.0 mm 0.00 in0.0 mm
03:26 AM 64.4°F18.0°C 60.1°F15.6°C 86% 10.4 mph WSW16.7 kmh WSW 12.0 mph19.3 kmh 29.88 in1011.9 mb 0.00 in0.0 mm 0.00 in0.0 mm 0.00 in0.0 mm
03:25 AM 64.4°F18.0°C 59.8°F15.4°C 85% 8.1 mph WSW13.0 kmh WSW 12.0 mph19.3 kmh 29.88 in1011.9 mb 0.00 in0.0 mm 0.00 in0.0 mm 0.00 in0.0 mm
03:24 AM 64.4°F18.0°C 60.1°F15.6°C 86% 8.1 mph W13.0 kmh W 10.0 mph16.1 kmh 29.88 in1011.9 mb 0.00 in0.0 mm 0.00 in0.0 mm 0.00 in0.0 mm
03:23 AM 64.4°F18.0°C 60.1°F15.6°C 86% 8.5 mph W13.7 kmh W 10.0 mph16.1 kmh 29.88 in1011.9 mb 0.00 in0.0 mm 0.00 in0.0 mm 0.00 in0.0 mm
03:22 AM 64.4°F18.0°C 60.1°F15.6°C 86% 8.4 mph W13.5 kmh W 10.0 mph16.1 kmh 29.88 in1011.9 mb 0.00 in0.0 mm 0.00 in0.0 mm 0.00 in0.0 mm
03:21 AM 64.4°F18.0°C 60.1°F15.6°C 86% 9.5 mph W15.3 kmh W 10.0 mph16.1 kmh 29.88 in1011.9 mb 0.00 in0.0 mm 0.00 in0.0 mm 0.00 in0.0 mm
03:20 AM 64.3°F17.9°C 60.0°F15.6°C 86% 7.9 mph WSW12.7 kmh WSW 10.0 mph16.1 kmh 29.88 in1011.9 mb 0.00 in0.0 mm 0.00 in0.0 mm 0.00 in0.0 mm
03:19 AM 64.3°F17.9°C 60.0°F15.6°C 86% 9.0 mph W14.5 kmh W 12.0 mph19.3 kmh 29.88 in1011.9 mb 0.00 in0.0 mm 0.00 in0.0 mm 0.00 in0.0 mm
03:18 AM 64.3°F17.9°C 60.0°F15.6°C 86% 10.1 mph W16.3 kmh W 14.0 mph22.5 kmh 29.88 in1011.9 mb 0.00 in0.0 mm 0.00 in0.0 mm 0.00 in0.0 mm
03:17 AM 64.3°F17.9°C 60.0°F15.6°C 86% 11.5 mph W18.5 kmh W 14.0 mph22.5 kmh 29.88 in1011.9 mb 0.00 in0.0 mm 0.00 in0.0 mm 0.00 in0.0 mm
03:16 AM 64.3°F17.9°C 60.0°F15.6°C 86% 10.6 mph WSW17.1 kmh WSW 13.0 mph20.9 kmh 29.88 in1011.9 mb 0.00 in0.0 mm 0.00 in0.0 mm 0.00 in0.0 mm
03:15 AM 64.3°F17.9°C 60.0°F15.6°C 86% 11.4 mph WSW18.3 kmh WSW 13.0 mph20.9 kmh 29.88 in1011.9 mb 0.00 in0.0 mm 0.00 in0.0 mm 0.00 in0.0 mm
03:14 AM 64.4°F18.0°C 60.1°F15.6°C 86% 10.7 mph W17.2 kmh W 12.0 mph19.3 kmh 29.88 in1011.9 mb 0.00 in0.0 mm 0.00 in0.0 mm 0.00 in0.0 mm
03:13 AM 64.4°F18.0°C 60.1°F15.6°C 86% 9.9 mph W15.9 kmh W 13.0 mph20.9 kmh 29.88 in1011.9 mb 0.00 in0.0 mm 0.00 in0.0 mm 0.00 in0.0 mm
03:12 AM 64.3°F17.9°C 60.0°F15.6°C 86% 10.6 mph W17.1 kmh W 14.0 mph22.5 kmh 29.88 in1011.9 mb 0.00 in0.0 mm 0.00 in0.0 mm 0.00 in0.0 mm
03:11 AM 64.4°F18.0°C 60.1°F15.6°C 86% 12.4 mph WSW20.0 kmh WSW 14.0 mph22.5 kmh 29.88 in1011.9 mb 0.00 in0.0 mm 0.00 in0.0 mm 0.00 in0.0 mm
03:10 AM 64.4°F18.0°C 60.1°F15.6°C 86% 10.8 mph WSW17.4 kmh WSW 13.0 mph20.9 kmh 29.88 in1011.9 mb 0.00 in0.0 mm 0.00 in0.0 mm 0.00 in0.0 mm
03:09 AM 64.3°F17.9°C 60.0°F15.6°C 86% 8.7 mph WSW14.0 kmh WSW 13.0 mph20.9 kmh 29.88 in1011.9 mb 0.00 in0.0 mm 0.00 in0.0 mm 0.00 in0.0 mm
03:08 AM 64.2°F17.9°C 59.9°F15.5°C 86% 11.0 mph WSW17.7 kmh WSW 15.0 mph24.1 kmh 29.88 in1011.9 mb 0.00 in0.0 mm 0.00 in0.0 mm 0.00 in0.0 mm
03:07 AM 64.3°F17.9°C 60.0°F15.6°C 86% 12.8 mph W20.6 kmh W 15.0 mph24.1 kmh 29.88 in1011.9 mb 0.00 in0.0 mm 0.00 in0.0 mm 0.00 in0.0 mm
03:06 AM 64.3°F17.9°C 60.0°F15.6°C 86% 11.3 mph W18.2 kmh W 13.0 mph20.9 kmh 29.88 in1011.9 mb 0.00 in0.0 mm 0.00 in0.0 mm 0.00 in0.0 mm
03:05 AM 64.3°F17.9°C 60.0°F15.6°C 86% 10.9 mph W17.5 kmh W 13.0 mph20.9 kmh 29.88 in1011.9 mb 0.00 in0.0 mm 0.00 in0.0 mm 0.00 in0.0 mm
03:04 AM 64.3°F17.9°C 60.0°F15.6°C 86% 11.1 mph W17.9 kmh W 13.0 mph20.9 kmh 29.88 in1011.9 mb 0.00 in0.0 mm 0.00 in0.0 mm 0.00 in0.0 mm
03:03 AM 64.3°F17.9°C 60.0°F15.6°C 86% 9.9 mph W15.9 kmh W 14.0 mph22.5 kmh 29.88 in1011.9 mb 0.00 in0.0 mm 0.00 in0.0 mm 0.00 in0.0 mm
03:02 AM 64.3°F17.9°C 60.0°F15.6°C 86% 11.6 mph WSW18.7 kmh WSW 14.0 mph22.5 kmh 29.88 in1011.9 mb 0.00 in0.0 mm 0.00 in0.0 mm 0.00 in0.0 mm
03:01 AM 64.3°F17.9°C 60.0°F15.6°C 86% 9.7 mph WSW15.6 kmh WSW 12.0 mph19.3 kmh 29.88 in1011.9 mb 0.00 in0.0 mm 0.00 in0.0 mm 0.00 in0.0 mm
03:00 AM 64.3°F17.9°C 60.0°F15.6°C 86% 9.5 mph WSW15.3 kmh WSW 13.0 mph20.9 kmh 29.88 in1011.9 mb 0.00 in0.0 mm 0.00 in0.0 mm 0.00 in0.0 mm
02:59 AM 64.3°F17.9°C 60.0°F15.6°C 86% 10.5 mph W16.9 kmh W 13.0 mph20.9 kmh 29.88 in1011.9 mb 0.00 in0.0 mm 0.00 in0.0 mm 0.00 in0.0 mm
02:58 AM 64.3°F17.9°C 60.0°F15.6°C 86% 9.2 mph W14.8 kmh W 13.0 mph20.9 kmh 29.88 in1011.9 mb 0.00 in0.0 mm 0.00 in0.0 mm 0.00 in0.0 mm
02:57 AM 64.2°F17.9°C 59.9°F15.5°C 86% 10.8 mph WSW17.4 kmh WSW 13.0 mph20.9 kmh 29.88 in1011.9 mb 0.00 in0.0 mm 0.00 in0.0 mm 0.00 in0.0 mm
02:56 AM 64.2°F17.9°C 59.9°F15.5°C 86% 9.2 mph WSW14.8 kmh WSW 11.0 mph17.7 kmh 29.88 in1011.9 mb 0.00 in0.0 mm 0.00 in0.0 mm 0.00 in0.0 mm
02:55 AM 64.2°F17.9°C 59.9°F15.5°C 86% 9.7 mph WSW15.6 kmh WSW 12.0 mph19.3 kmh 29.88 in1011.9 mb 0.00 in0.0 mm 0.00 in0.0 mm 0.00 in0.0 mm
02:54 AM 64.2°F17.9°C 59.9°F15.5°C 86% 10.7 mph WSW17.2 kmh WSW 12.0 mph19.3 kmh 29.88 in1011.9 mb 0.00 in0.0 mm 0.00 in0.0 mm 0.00 in0.0 mm
02:53 AM 64.2°F17.9°C 59.9°F15.5°C 86% 9.8 mph WSW15.8 kmh WSW 12.0 mph19.3 kmh 29.88 in1011.9 mb 0.00 in0.0 mm 0.00 in0.0 mm 0.00 in0.0 mm
02:52 AM 64.1°F17.8°C 59.8°F15.4°C 86% 10.0 mph WSW16.1 kmh WSW 12.0 mph19.3 kmh 29.88 in1011.9 mb 0.00 in0.0 mm 0.00 in0.0 mm 0.00 in0.0 mm
02:51 AM 64.2°F17.9°C 59.9°F15.5°C 86% 10.4 mph WSW16.7 kmh WSW 12.0 mph19.3 kmh 29.88 in1011.9 mb 0.00 in0.0 mm 0.00 in0.0 mm 0.00 in0.0 mm
02:50 AM 64.2°F17.9°C 59.9°F15.5°C 86% 10.0 mph WSW16.1 kmh WSW 11.0 mph17.7 kmh 29.88 in1011.9 mb 0.00 in0.0 mm 0.00 in0.0 mm 0.00 in0.0 mm
02:49 AM 64.2°F17.9°C 59.9°F15.5°C 86% 9.5 mph WSW15.3 kmh WSW 11.0 mph17.7 kmh 29.88 in1011.9 mb 0.00 in0.0 mm 0.00 in0.0 mm 0.00 in0.0 mm
02:48 AM 64.2°F17.9°C 59.9°F15.5°C 86% 9.1 mph WSW14.6 kmh WSW 11.0 mph17.7 kmh 29.88 in1011.9 mb 0.00 in0.0 mm 0.00 in0.0 mm 0.00 in0.0 mm
02:47 AM 64.2°F17.9°C 59.9°F15.5°C 86% 8.6 mph WSW13.8 kmh WSW 11.0 mph17.7 kmh 29.88 in1011.9 mb 0.00 in0.0 mm 0.00 in0.0 mm 0.00 in0.0 mm
02:46 AM 64.2°F17.9°C 59.9°F15.5°C 86% 8.9 mph WSW14.3 kmh WSW 11.0 mph17.7 kmh 29.88 in1011.9 mb 0.00 in0.0 mm 0.00 in0.0 mm 0.00 in0.0 mm
02:45 AM 64.2°F17.9°C 59.9°F15.5°C 86% 9.6 mph W15.4 kmh W 12.0 mph19.3 kmh 29.88 in1011.9 mb 0.00 in0.0 mm 0.00 in0.0 mm 0.00 in0.0 mm
02:44 AM 64.2°F17.9°C 59.9°F15.5°C 86% 9.5 mph WSW15.3 kmh WSW 12.0 mph19.3 kmh 29.88 in1011.9 mb 0.00 in0.0 mm 0.00 in0.0 mm 0.00 in0.0 mm
02:43 AM 64.2°F17.9°C 59.9°F15.5°C 86% 9.6 mph WSW15.4 kmh WSW 11.0 mph17.7 kmh 29.88 in1011.9 mb 0.00 in0.0 mm 0.00 in0.0 mm 0.00 in0.0 mm
02:42 AM 64.2°F17.9°C 59.9°F15.5°C 86% 9.6 mph WSW15.4 kmh WSW 11.0 mph17.7 kmh 29.88 in1011.9 mb 0.00 in0.0 mm 0.00 in0.0 mm 0.00 in0.0 mm
02:41 AM 64.3°F17.9°C 60.0°F15.6°C 86% 8.4 mph WSW13.5 kmh WSW 11.0 mph17.7 kmh 29.88 in1011.9 mb 0.00 in0.0 mm 0.00 in0.0 mm 0.00 in0.0 mm
02:40 AM 64.3°F17.9°C 60.0°F15.6°C 86% 9.5 mph WSW15.3 kmh WSW 12.0 mph19.3 kmh 29.88 in1011.9 mb 0.00 in0.0 mm 0.00 in0.0 mm 0.00 in0.0 mm
02:39 AM 64.2°F17.9°C 59.9°F15.5°C 86% 9.5 mph WSW15.3 kmh WSW 12.0 mph19.3 kmh 29.88 in1011.9 mb 0.00 in0.0 mm 0.00 in0.0 mm 0.00 in0.0 mm
02:38 AM 64.2°F17.9°C 59.9°F15.5°C 86% 9.3 mph WSW15.0 kmh WSW 12.0 mph19.3 kmh 29.88 in1011.9 mb 0.00 in0.0 mm 0.00 in0.0 mm 0.00 in0.0 mm
02:37 AM 64.3°F17.9°C 60.0°F15.6°C 86% 11.0 mph WSW17.7 kmh WSW 14.0 mph22.5 kmh 29.88 in1011.9 mb 0.00 in0.0 mm 0.00 in0.0 mm 0.00 in0.0 mm
02:36 AM 64.3°F17.9°C 60.0°F15.6°C 86% 11.2 mph WSW18.0 kmh WSW 14.0 mph22.5 kmh 29.88 in1011.9 mb 0.00 in0.0 mm 0.00 in0.0 mm 0.00 in0.0 mm
02:35 AM 64.3°F17.9°C 60.0°F15.6°C 86% 9.7 mph WSW15.6 kmh WSW 13.0 mph20.9 kmh 29.88 in1011.9 mb 0.00 in0.0 mm 0.00 in0.0 mm 0.00 in0.0 mm
02:34 AM 64.4°F18.0°C 60.1°F15.6°C 86% 11.0 mph WSW17.7 kmh WSW 13.0 mph20.9 kmh 29.88 in1011.9 mb 0.00 in0.0 mm 0.00 in0.0 mm 0.00 in0.0 mm
02:33 AM 64.3°F17.9°C 60.0°F15.6°C 86% 10.0 mph WSW16.1 kmh WSW 12.0 mph19.3 kmh 29.88 in1011.9 mb 0.00 in0.0 mm 0.00 in0.0 mm 0.00 in0.0 mm
02:32 AM 64.3°F17.9°C 60.0°F15.6°C 86% 9.7 mph WSW15.6 kmh WSW 12.0 mph19.3 kmh 29.88 in1011.9 mb 0.00 in0.0 mm 0.00 in0.0 mm 0.00 in0.0 mm
02:31 AM 64.3°F17.9°C 60.0°F15.6°C 86% 9.7 mph WSW15.6 kmh WSW 12.0 mph19.3 kmh 29.88 in1011.9 mb 0.00 in0.0 mm 0.00 in0.0 mm 0.00 in0.0 mm
02:30 AM 64.3°F17.9°C 59.7°F15.4°C 85% 10.1 mph WSW16.3 kmh WSW 13.0 mph20.9 kmh 29.88 in1011.9 mb 0.00 in0.0 mm 0.00 in0.0 mm 0.00 in0.0 mm
02:29 AM 64.3°F17.9°C 59.7°F15.4°C 85% 10.8 mph WSW17.4 kmh WSW 13.0 mph20.9 kmh 29.88 in1011.9 mb 0.00 in0.0 mm 0.00 in0.0 mm 0.00 in0.0 mm
02:28 AM 64.3°F17.9°C 60.0°F15.6°C 86% 9.8 mph WSW15.8 kmh WSW 12.0 mph19.3 kmh 29.88 in1011.9 mb 0.00 in0.0 mm 0.00 in0.0 mm 0.00 in0.0 mm
02:27 AM 64.4°F18.0°C 60.1°F15.6°C 86% 10.6 mph WSW17.1 kmh WSW 14.0 mph22.5 kmh 29.88 in1011.9 mb 0.00 in0.0 mm 0.00 in0.0 mm 0.00 in0.0 mm
02:26 AM 64.3°F17.9°C 59.7°F15.4°C 85% 11.3 mph WSW18.2 kmh WSW 14.0 mph22.5 kmh 29.88 in1011.9 mb 0.00 in0.0 mm 0.00 in0.0 mm 0.00 in0.0 mm
02:25 AM 64.3°F17.9°C 59.7°F15.4°C 85% 10.0 mph WSW16.1 kmh WSW 13.0 mph20.9 kmh 29.88 in1011.9 mb 0.00 in0.0 mm 0.00 in0.0 mm 0.00 in0.0 mm
02:24 AM 64.3°F17.9°C 59.7°F15.4°C 85% 9.9 mph WSW15.9 kmh WSW 13.0 mph20.9 kmh 29.88 in1011.9 mb 0.00 in0.0 mm 0.00 in0.0 mm 0.00 in0.0 mm
02:23 AM 64.3°F17.9°C 59.7°F15.4°C 85% 10.2 mph WSW16.4 kmh WSW 14.0 mph22.5 kmh 29.88 in1011.9 mb 0.00 in0.0 mm 0.00 in0.0 mm 0.00 in0.0 mm
02:22 AM 64.3°F17.9°C 59.7°F15.4°C 85% 11.0 mph WSW17.7 kmh WSW 14.0 mph22.5 kmh 29.88 in1011.9 mb 0.00 in0.0 mm 0.00 in0.0 mm 0.00 in0.0 mm
02:21 AM 64.4°F18.0°C 59.8°F15.4°C 85% 10.4 mph WSW16.7 kmh WSW 12.0 mph19.3 kmh 29.88 in1011.9 mb 0.00 in0.0 mm 0.00 in0.0 mm 0.00 in0.0 mm
02:20 AM 64.3°F17.9°C 59.7°F15.4°C 85% 10.3 mph WSW16.6 kmh WSW 13.0 mph20.9 kmh 29.88 in1011.9 mb 0.00 in0.0 mm 0.00 in0.0 mm 0.00 in0.0 mm
02:19 AM 64.3°F17.9°C 59.7°F15.4°C 85% 11.0 mph WSW17.7 kmh WSW 13.0 mph20.9 kmh 29.88 in1011.9 mb 0.00 in0.0 mm 0.00 in0.0 mm 0.00 in0.0 mm
02:18 AM 64.3°F17.9°C 59.7°F15.4°C 85% 10.7 mph WSW17.2 kmh WSW 13.0 mph20.9 kmh 29.88 in1011.9 mb 0.00 in0.0 mm 0.00 in0.0 mm 0.00 in0.0 mm
02:17 AM 64.3°F17.9°C 59.7°F15.4°C 85% 10.9 mph WSW17.5 kmh WSW 13.0 mph20.9 kmh 29.88 in1011.9 mb 0.00 in0.0 mm 0.00 in0.0 mm 0.00 in0.0 mm
02:16 AM 64.3°F17.9°C 59.7°F15.4°C 85% 10.9 mph WSW17.5 kmh WSW 14.0 mph22.5 kmh 29.88 in1011.9 mb 0.00 in0.0 mm 0.00 in0.0 mm 0.00 in0.0 mm
02:15 AM 64.3°F17.9°C 59.7°F15.4°C 85% 12.6 mph WSW20.3 kmh WSW 15.0 mph24.1 kmh 29.88 in1011.9 mb 0.00 in0.0 mm 0.00 in0.0 mm 0.00 in0.0 mm
02:14 AM 64.3°F17.9°C 59.7°F15.4°C 85% 12.9 mph WSW20.8 kmh WSW 15.0 mph24.1 kmh 29.88 in1011.9 mb 0.00 in0.0 mm 0.00 in0.0 mm 0.00 in0.0 mm
02:13 AM 64.3°F17.9°C 59.4°F15.2°C 84% 11.8 mph WSW19.0 kmh WSW 15.0 mph24.1 kmh 29.88 in1011.9 mb 0.00 in0.0 mm 0.00 in0.0 mm 0.00 in0.0 mm
02:12 AM 64.3°F17.9°C 59.7°F15.4°C 85% 12.3 mph WSW19.8 kmh WSW 15.0 mph24.1 kmh 29.88 in1011.9 mb 0.00 in0.0 mm 0.00 in0.0 mm 0.00 in0.0 mm
02:11 AM 64.4°F18.0°C 59.8°F15.4°C 85% 11.8 mph WSW19.0 kmh WSW 13.0 mph20.9 kmh 29.88 in1011.9 mb 0.00 in0.0 mm 0.00 in0.0 mm 0.00 in0.0 mm
02:10 AM 64.3°F17.9°C 59.7°F15.4°C 85% 10.9 mph WSW17.5 kmh WSW 13.0 mph20.9 kmh 29.88 in1011.9 mb 0.00 in0.0 mm 0.00 in0.0 mm 0.00 in0.0 mm
02:09 AM 64.3°F17.9°C 59.4°F15.2°C 84% 11.3 mph W18.2 kmh W 13.0 mph20.9 kmh 29.88 in1011.9 mb 0.00 in0.0 mm 0.00 in0.0 mm 0.00 in0.0 mm
02:08 AM 64.4°F18.0°C 59.5°F15.3°C 84% 11.7 mph WSW18.8 kmh WSW 14.0 mph22.5 kmh 29.88 in1011.9 mb 0.00 in0.0 mm 0.00 in0.0 mm 0.00 in0.0 mm
02:07 AM 64.4°F18.0°C 59.8°F15.4°C 85% 12.2 mph WSW19.6 kmh WSW 14.0 mph22.5 kmh 29.88 in1011.9 mb 0.00 in0.0 mm 0.00 in0.0 mm 0.00 in0.0 mm
02:06 AM 64.3°F17.9°C 59.4°F15.2°C 84% 10.5 mph WSW16.9 kmh WSW 14.0 mph22.5 kmh 29.88 in1011.9 mb 0.00 in0.0 mm 0.00 in0.0 mm 0.00 in0.0 mm
02:05 AM 64.4°F18.0°C 59.5°F15.3°C 84% 10.8 mph WSW17.4 kmh WSW 12.0 mph19.3 kmh 29.88 in1011.9 mb 0.00 in0.0 mm 0.00 in0.0 mm 0.00 in0.0 mm
02:04 AM 64.3°F17.9°C 59.4°F15.2°C 84% 11.1 mph WSW17.9 kmh WSW 12.0 mph19.3 kmh 29.88 in1011.9 mb 0.00 in0.0 mm 0.00 in0.0 mm 0.00 in0.0 mm
02:03 AM 64.4°F18.0°C 59.5°F15.3°C 84% 10.2 mph WSW16.4 kmh WSW 12.0 mph19.3 kmh 29.88 in1011.9 mb 0.00 in0.0 mm 0.00 in0.0 mm 0.00 in0.0 mm
02:02 AM 64.5°F18.1°C 59.6°F15.3°C 84% 10.8 mph WSW17.4 kmh WSW 13.0 mph20.9 kmh 29.88 in1011.9 mb 0.00 in0.0 mm 0.00 in0.0 mm 0.00 in0.0 mm
02:01 AM 64.5°F18.1°C 59.9°F15.5°C 85% 10.8 mph WSW17.4 kmh WSW 13.0 mph20.9 kmh 29.88 in1011.9 mb 0.00 in0.0 mm 0.00 in0.0 mm 0.00 in0.0 mm
02:00 AM 64.5°F18.1°C 59.6°F15.3°C 84% 10.2 mph WSW16.4 kmh WSW 14.0 mph22.5 kmh 29.88 in1011.9 mb 0.00 in0.0 mm 0.00 in0.0 mm 0.00 in0.0 mm
01:59 AM 64.4°F18.0°C 59.8°F15.4°C 85% 11.9 mph W19.2 kmh W 14.0 mph22.5 kmh 29.88 in1011.9 mb 0.00 in0.0 mm 0.00 in0.0 mm 0.00 in0.0 mm
01:58 AM 64.4°F18.0°C 59.5°F15.3°C 84% 11.9 mph W19.2 kmh W 14.0 mph22.5 kmh 29.88 in1011.9 mb 0.00 in0.0 mm 0.00 in0.0 mm 0.00 in0.0 mm
01:57 AM 64.4°F18.0°C 59.5°F15.3°C 84% 12.4 mph W20.0 kmh W 16.0 mph25.7 kmh 29.88 in1011.9 mb 0.00 in0.0 mm 0.00 in0.0 mm 0.00 in0.0 mm
01:56 AM 64.4°F18.0°C 59.5°F15.3°C 84% 13.7 mph WSW22.0 kmh WSW 16.0 mph25.7 kmh 29.88 in1011.9 mb 0.00 in0.0 mm 0.00 in0.0 mm 0.00 in0.0 mm
01:55 AM 64.5°F18.1°C 59.6°F15.3°C 84% 11.7 mph WSW18.8 kmh WSW 15.0 mph24.1 kmh 29.88 in1011.9 mb 0.00 in0.0 mm 0.00 in0.0 mm 0.00 in0.0 mm
01:54 AM 64.5°F18.1°C 59.6°F15.3°C 84% 12.7 mph WSW20.4 kmh WSW 15.0 mph24.1 kmh 29.88 in1011.9 mb 0.00 in0.0 mm 0.00 in0.0 mm 0.00 in0.0 mm
01:53 AM 64.5°F18.1°C 59.6°F15.3°C 84% 12.8 mph WSW20.6 kmh WSW 14.0 mph22.5 kmh 29.88 in1011.9 mb 0.00 in0.0 mm 0.00 in0.0 mm 0.00 in0.0 mm
01:52 AM 64.6°F18.1°C 60.0°F15.6°C 85% 10.5 mph W16.9 kmh W 14.0 mph22.5 kmh 29.88 in1011.9 mb 0.00 in0.0 mm 0.00 in0.0 mm 0.00 in0.0 mm
01:51 AM 64.4°F18.0°C 59.5°F15.3°C 84% 9.6 mph W15.4 kmh W 12.0 mph19.3 kmh 29.88 in1011.9 mb 0.00 in0.0 mm 0.00 in0.0 mm 0.00 in0.0 mm
01:50 AM 64.4°F18.0°C 59.5°F15.3°C 84% 10.2 mph W16.4 kmh W 12.0 mph19.3 kmh 29.88 in1011.9 mb 0.00 in0.0 mm 0.00 in0.0 mm 0.00 in0.0 mm
01:49 AM 64.4°F18.0°C 59.1°F15.1°C 83% 10.7 mph W17.2 kmh W 12.0 mph19.3 kmh 29.88 in1011.9 mb 0.00 in0.0 mm 0.00 in0.0 mm 0.00 in0.0 mm
01:48 AM 64.4°F18.0°C 59.5°F15.3°C 84% 11.0 mph WSW17.7 kmh WSW 13.0 mph20.9 kmh 29.88 in1011.9 mb 0.00 in0.0 mm 0.00 in0.0 mm 0.00 in0.0 mm
01:47 AM 64.4°F18.0°C 59.5°F15.3°C 84% 11.7 mph WSW18.8 kmh WSW 13.0 mph20.9 kmh 29.88 in1011.9 mb 0.00 in0.0 mm 0.00 in0.0 mm 0.00 in0.0 mm
01:46 AM 64.5°F18.1°C 59.6°F15.3°C 84% 10.2 mph W16.4 kmh W 13.0 mph20.9 kmh 29.88 in1011.9 mb 0.00 in0.0 mm 0.00 in0.0 mm 0.00 in0.0 mm
01:45 AM 64.5°F18.1°C 59.6°F15.3°C 84% 10.6 mph W17.1 kmh W 13.0 mph20.9 kmh 29.88 in1011.9 mb 0.00 in0.0 mm 0.00 in0.0 mm 0.00 in0.0 mm
01:44 AM 64.5°F18.1°C 59.6°F15.3°C 84% 11.1 mph WSW17.9 kmh WSW 15.0 mph24.1 kmh 29.88 in1011.9 mb 0.00 in0.0 mm 0.00 in0.0 mm 0.00 in0.0 mm
01:43 AM 64.5°F18.1°C 59.6°F15.3°C 84% 11.4 mph W18.3 kmh W 17.0 mph27.4 kmh 29.88 in1011.9 mb 0.00 in0.0 mm 0.00 in0.0 mm 0.00 in0.0 mm
01:42 AM 64.4°F18.0°C 59.5°F15.3°C 84% 14.2 mph W22.9 kmh W 17.0 mph27.4 kmh 29.88 in1011.9 mb 0.00 in0.0 mm 0.00 in0.0 mm 0.00 in0.0 mm
01:41 AM 64.5°F18.1°C 59.6°F15.3°C 84% 13.0 mph WSW20.9 kmh WSW 15.0 mph24.1 kmh 29.88 in1011.9 mb 0.00 in0.0 mm 0.00 in0.0 mm 0.00 in0.0 mm
01:40 AM 64.5°F18.1°C 59.6°F15.3°C 84% 12.6 mph WSW20.3 kmh WSW 15.0 mph24.1 kmh 29.88 in1011.9 mb 0.00 in0.0 mm 0.00 in0.0 mm 0.00 in0.0 mm
01:39 AM 64.4°F18.0°C 59.5°F15.3°C 84% 12.5 mph W20.1 kmh W 15.0 mph24.1 kmh 29.88 in1011.9 mb 0.00 in0.0 mm 0.00 in0.0 mm 0.00 in0.0 mm
01:38 AM 64.4°F18.0°C 59.1°F15.1°C 83% 13.2 mph WSW21.2 kmh WSW 15.0 mph24.1 kmh 29.88 in1011.9 mb 0.00 in0.0 mm 0.00 in0.0 mm 0.00 in0.0 mm
01:37 AM 64.4°F18.0°C 59.5°F15.3°C 84% 12.6 mph W20.3 kmh W 15.0 mph24.1 kmh 29.88 in1011.9 mb 0.00 in0.0 mm 0.00 in0.0 mm 0.00 in0.0 mm
01:36 AM 64.5°F18.1°C 59.6°F15.3°C 84% 10.5 mph W16.9 kmh W 15.0 mph24.1 kmh 29.88 in1011.9 mb 0.00 in0.0 mm 0.00 in0.0 mm 0.00 in0.0 mm
01:35 AM 64.5°F18.1°C 59.6°F15.3°C 84% 9.4 mph W15.1 kmh W 13.0 mph20.9 kmh 29.88 in1011.9 mb 0.00 in0.0 mm 0.00 in0.0 mm 0.00 in0.0 mm
01:34 AM 64.4°F18.0°C 59.5°F15.3°C 84% 10.5 mph W16.9 kmh W 13.0 mph20.9 kmh 29.88 in1011.9 mb 0.00 in0.0 mm 0.00 in0.0 mm 0.00 in0.0 mm
01:33 AM 64.4°F18.0°C 59.5°F15.3°C 84% 10.6 mph W17.1 kmh W 13.0 mph20.9 kmh 29.88 in1011.9 mb 0.00 in0.0 mm 0.00 in0.0 mm 0.00 in0.0 mm
01:32 AM 64.5°F18.1°C 59.6°F15.3°C 84% 11.6 mph W18.7 kmh W 13.0 mph20.9 kmh 29.88 in1011.9 mb 0.00 in0.0 mm 0.00 in0.0 mm 0.00 in0.0 mm
01:31 AM 64.5°F18.1°C 59.6°F15.3°C 84% 9.3 mph W15.0 kmh W 13.0 mph20.9 kmh 29.88 in1011.9 mb 0.00 in0.0 mm 0.00 in0.0 mm 0.00 in0.0 mm
01:30 AM 64.4°F18.0°C 59.5°F15.3°C 84% 10.5 mph W16.9 kmh W 13.0 mph20.9 kmh 29.88 in1011.9 mb 0.00 in0.0 mm 0.00 in0.0 mm 0.00 in0.0 mm
01:29 AM 64.4°F18.0°C 59.5°F15.3°C 84% 10.6 mph W17.1 kmh W 13.0 mph20.9 kmh 29.88 in1011.9 mb 0.00 in0.0 mm 0.00 in0.0 mm 0.00 in0.0 mm
01:28 AM 64.5°F18.1°C 59.6°F15.3°C 84% 11.3 mph W18.2 kmh W 15.0 mph24.1 kmh 29.88 in1011.9 mb 0.00 in0.0 mm 0.00 in0.0 mm 0.00 in0.0 mm
01:27 AM 64.5°F18.1°C 59.6°F15.3°C 84% 10.8 mph W17.4 kmh W 15.0 mph24.1 kmh 29.88 in1011.9 mb 0.00 in0.0 mm 0.00 in0.0 mm 0.00 in0.0 mm
01:26 AM 64.4°F18.0°C 59.5°F15.3°C 84% 10.4 mph W16.7 kmh W 13.0 mph20.9 kmh 29.88 in1011.9 mb 0.00 in0.0 mm 0.00 in0.0 mm 0.00 in0.0 mm
01:25 AM 64.5°F18.1°C 59.6°F15.3°C 84% 11.3 mph WNW18.2 kmh WNW 13.0 mph20.9 kmh 29.88 in1011.9 mb 0.00 in0.0 mm 0.00 in0.0 mm 0.00 in0.0 mm
01:24 AM 64.4°F18.0°C 59.5°F15.3°C 84% 9.7 mph W15.6 kmh W 13.0 mph20.9 kmh 29.88 in1011.9 mb 0.00 in0.0 mm 0.00 in0.0 mm 0.00 in0.0 mm
01:23 AM 64.5°F18.1°C 59.6°F15.3°C 84% 11.2 mph W18.0 kmh W 13.0 mph20.9 kmh 29.88 in1011.9 mb 0.00 in0.0 mm 0.00 in0.0 mm 0.00 in0.0 mm
01:22 AM 64.5°F18.1°C 59.6°F15.3°C 84% 11.5 mph W18.5 kmh W 15.0 mph24.1 kmh 29.88 in1011.9 mb 0.00 in0.0 mm 0.00 in0.0 mm 0.00 in0.0 mm
01:21 AM 64.4°F18.0°C 59.5°F15.3°C 84% 12.9 mph W20.8 kmh W 15.0 mph24.1 kmh 29.88 in1011.9 mb 0.00 in0.0 mm 0.00 in0.0 mm 0.00 in0.0 mm
01:20 AM 64.5°F18.1°C 59.6°F15.3°C 84% 12.3 mph WNW19.8 kmh WNW 17.0 mph27.4 kmh 29.88 in1011.9 mb 0.00 in0.0 mm 0.00 in0.0 mm 0.00 in0.0 mm
01:19 AM 64.4°F18.0°C 59.1°F15.1°C 83% 14.3 mph WNW23.0 kmh WNW 17.0 mph27.4 kmh 29.88 in1011.9 mb 0.00 in0.0 mm 0.00 in0.0 mm 0.00 in0.0 mm
01:18 AM 64.5°F18.1°C 59.6°F15.3°C 84% 13.0 mph W20.9 kmh W 17.0 mph27.4 kmh 29.88 in1011.9 mb 0.00 in0.0 mm 0.00 in0.0 mm 0.00 in0.0 mm
01:17 AM 64.4°F18.0°C 59.5°F15.3°C 84% 10.8 mph WNW17.4 kmh WNW 14.0 mph22.5 kmh 29.88 in1011.9 mb 0.00 in0.0 mm 0.00 in0.0 mm 0.00 in0.0 mm
01:16 AM 64.4°F18.0°C 59.1°F15.1°C 83% 11.5 mph W18.5 kmh W 14.0 mph22.5 kmh 29.88 in1011.9 mb 0.00 in0.0 mm 0.00 in0.0 mm 0.00 in0.0 mm
01:15 AM 64.4°F18.0°C 59.1°F15.1°C 83% 12.1 mph W19.5 kmh W 14.0 mph22.5 kmh 29.88 in1011.9 mb 0.00 in0.0 mm 0.00 in0.0 mm 0.00 in0.0 mm
01:14 AM 64.3°F17.9°C 59.0°F15.0°C 83% 11.8 mph W19.0 kmh W 16.0 mph25.7 kmh 29.88 in1011.9 mb 0.00 in0.0 mm 0.00 in0.0 mm 0.00 in0.0 mm
01:13 AM 64.3°F17.9°C 59.0°F15.0°C 83% 14.1 mph W22.7 kmh W 16.0 mph25.7 kmh 29.88 in1011.9 mb 0.00 in0.0 mm 0.00 in0.0 mm 0.00 in0.0 mm
01:12 AM 64.4°F18.0°C 59.5°F15.3°C 84% 11.8 mph WNW19.0 kmh WNW 14.0 mph22.5 kmh 29.88 in1011.9 mb 0.00 in0.0 mm 0.00 in0.0 mm 0.00 in0.0 mm
01:11 AM 64.4°F18.0°C 59.1°F15.1°C 83% 11.2 mph WNW18.0 kmh WNW 13.0 mph20.9 kmh 29.88 in1011.9 mb 0.00 in0.0 mm 0.00 in0.0 mm 0.00 in0.0 mm
01:10 AM 64.4°F18.0°C 59.1°F15.1°C 83% 11.1 mph W17.9 kmh W 15.0 mph24.1 kmh 29.88 in1011.9 mb 0.00 in0.0 mm 0.00 in0.0 mm 0.00 in0.0 mm
01:09 AM 64.3°F17.9°C 59.0°F15.0°C 83% 13.3 mph W21.4 kmh W 15.0 mph24.1 kmh 29.88 in1011.9 mb 0.00 in0.0 mm 0.00 in0.0 mm 0.00 in0.0 mm
01:08 AM 64.3°F17.9°C 59.0°F15.0°C 83% 13.2 mph W21.2 kmh W 15.0 mph24.1 kmh 29.88 in1011.9 mb 0.00 in0.0 mm 0.00 in0.0 mm 0.00 in0.0 mm
01:07 AM 64.4°F18.0°C 59.5°F15.3°C 84% 12.7 mph W20.4 kmh W 14.0 mph22.5 kmh 29.88 in1011.9 mb 0.00 in0.0 mm 0.00 in0.0 mm 0.00 in0.0 mm
01:06 AM 64.4°F18.0°C 59.1°F15.1°C 83% 10.2 mph W16.4 kmh W 15.0 mph24.1 kmh 29.88 in1011.9 mb 0.00 in0.0 mm 0.00 in0.0 mm 0.00 in0.0 mm
01:05 AM 64.4°F18.0°C 59.5°F15.3°C 84% 10.9 mph WSW17.5 kmh WSW 15.0 mph24.1 kmh 29.88 in1011.9 mb 0.00 in0.0 mm 0.00 in0.0 mm 0.00 in0.0 mm
01:04 AM 64.4°F18.0°C 59.5°F15.3°C 84% 9.1 mph W14.6 kmh W 12.0 mph19.3 kmh 29.88 in1011.9 mb 0.00 in0.0 mm 0.00 in0.0 mm 0.00 in0.0 mm
01:03 AM 64.4°F18.0°C 59.5°F15.3°C 84% 10.0 mph W16.1 kmh W 11.0 mph17.7 kmh 29.88 in1011.9 mb 0.00 in0.0 mm 0.00 in0.0 mm 0.00 in0.0 mm
01:02 AM 64.5°F18.1°C 59.6°F15.3°C 84% 8.4 mph WNW13.5 kmh WNW 11.0 mph17.7 kmh 29.88 in1011.9 mb 0.00 in0.0 mm 0.00 in0.0 mm 0.00 in0.0 mm
01:01 AM 64.5°F18.1°C 59.6°F15.3°C 84% 8.7 mph W14.0 kmh W 10.0 mph16.1 kmh 29.88 in1011.9 mb 0.00 in0.0 mm 0.00 in0.0 mm 0.00 in0.0 mm
01:00 AM 64.5°F18.1°C 59.6°F15.3°C 84% 7.6 mph W12.2 kmh W 11.0 mph17.7 kmh 29.88 in1011.9 mb 0.00 in0.0 mm 0.00 in0.0 mm 0.00 in0.0 mm
12:59 AM 64.5°F18.1°C 59.6°F15.3°C 84% 9.2 mph W14.8 kmh W 11.0 mph17.7 kmh 29.88 in1011.9 mb 0.00 in0.0 mm 0.00 in0.0 mm 0.00 in0.0 mm
12:58 AM 64.5°F18.1°C 59.6°F15.3°C 84% 8.4 mph W13.5 kmh W 11.0 mph17.7 kmh 29.88 in1011.9 mb 0.00 in0.0 mm 0.00 in0.0 mm 0.00 in0.0 mm
12:57 AM 64.5°F18.1°C 59.6°F15.3°C 84% 8.1 mph W13.0 kmh W 12.0 mph19.3 kmh 29.88 in1011.9 mb 0.00 in0.0 mm 0.00 in0.0 mm 0.00 in0.0 mm
12:56 AM 64.5°F18.1°C 59.6°F15.3°C 84% 9.7 mph W15.6 kmh W 12.0 mph19.3 kmh 29.88 in1011.9 mb 0.00 in0.0 mm 0.00 in0.0 mm 0.00 in0.0 mm
12:55 AM 64.5°F18.1°C 59.6°F15.3°C 84% 9.3 mph W15.0 kmh W 12.0 mph19.3 kmh 29.88 in1011.9 mb 0.00 in0.0 mm 0.00 in0.0 mm 0.00 in0.0 mm
12:54 AM 64.5°F18.1°C 59.6°F15.3°C 84% 8.8 mph W14.2 kmh W 12.0 mph19.3 kmh 29.88 in1011.9 mb 0.00 in0.0 mm 0.00 in0.0 mm 0.00 in0.0 mm
12:53 AM 64.5°F18.1°C 59.6°F15.3°C 84% 9.2 mph W14.8 kmh W 13.0 mph20.9 kmh 29.88 in1011.9 mb 0.00 in0.0 mm 0.00 in0.0 mm 0.00 in0.0 mm
12:52 AM 64.6°F18.1°C 59.7°F15.4°C 84% 11.6 mph W18.7 kmh W 14.0 mph22.5 kmh 29.88 in1011.9 mb 0.00 in0.0 mm 0.00 in0.0 mm 0.00 in0.0 mm
12:51 AM 64.5°F18.1°C 59.2°F15.1°C 83% 10.7 mph W17.2 kmh W 14.0 mph22.5 kmh 29.88 in1011.9 mb 0.00 in0.0 mm 0.00 in0.0 mm 0.00 in0.0 mm
12:50 AM 64.6°F18.1°C 59.7°F15.4°C 84% 11.1 mph W17.9 kmh W 14.0 mph22.5 kmh 29.88 in1011.9 mb 0.00 in0.0 mm 0.00 in0.0 mm 0.00 in0.0 mm
12:49 AM 64.7°F18.2°C 59.7°F15.4°C 84% 9.4 mph W15.1 kmh W 12.0 mph19.3 kmh 29.88 in1011.9 mb 0.00 in0.0 mm 0.00 in0.0 mm 0.00 in0.0 mm
12:48 AM 64.7°F18.2°C 59.7°F15.4°C 84% 8.0 mph W12.9 kmh W 13.0 mph20.9 kmh 29.88 in1011.9 mb 0.00 in0.0 mm 0.00 in0.0 mm 0.00 in0.0 mm
12:47 AM 64.7°F18.2°C 59.7°F15.4°C 84% 9.9 mph W15.9 kmh W 13.0 mph20.9 kmh 29.88 in1011.9 mb 0.00 in0.0 mm 0.00 in0.0 mm 0.00 in0.0 mm
12:46 AM 64.7°F18.2°C 59.7°F15.4°C 84% 8.5 mph W13.7 kmh W 11.0 mph17.7 kmh 29.88 in1011.9 mb 0.00 in0.0 mm 0.00 in0.0 mm 0.00 in0.0 mm
12:45 AM 64.7°F18.2°C 59.7°F15.4°C 84% 10.0 mph W16.1 kmh W 12.0 mph19.3 kmh 29.88 in1011.9 mb 0.00 in0.0 mm 0.00 in0.0 mm 0.00 in0.0 mm
12:44 AM 64.7°F18.2°C 59.7°F15.4°C 84% 9.9 mph W15.9 kmh W 13.0 mph20.9 kmh 29.88 in1011.9 mb 0.00 in0.0 mm 0.00 in0.0 mm 0.00 in0.0 mm
12:43 AM 64.7°F18.2°C 59.7°F15.4°C 84% 10.7 mph W17.2 kmh W 13.0 mph20.9 kmh 29.88 in1011.9 mb 0.00 in0.0 mm 0.00 in0.0 mm 0.00 in0.0 mm
12:42 AM 64.7°F18.2°C 59.7°F15.4°C 84% 10.6 mph W17.1 kmh W 13.0 mph20.9 kmh 29.88 in1011.9 mb 0.00 in0.0 mm 0.00 in0.0 mm 0.00 in0.0 mm
12:41 AM 64.6°F18.1°C 59.7°F15.4°C 84% 9.8 mph W15.8 kmh W 14.0 mph22.5 kmh 29.88 in1011.9 mb 0.00 in0.0 mm 0.00 in0.0 mm 0.00 in0.0 mm
12:40 AM 64.6°F18.1°C 59.7°F15.4°C 84% 11.3 mph W18.2 kmh W 14.0 mph22.5 kmh 29.88 in1011.9 mb 0.00 in0.0 mm 0.00 in0.0 mm 0.00 in0.0 mm
12:39 AM 64.6°F18.1°C 59.7°F15.4°C 84% 11.2 mph W18.0 kmh W 13.0 mph20.9 kmh 29.88 in1011.9 mb 0.00 in0.0 mm 0.00 in0.0 mm 0.00 in0.0 mm
12:38 AM 64.7°F18.2°C 59.4°F15.2°C 83% 11.9 mph W19.2 kmh W 14.0 mph22.5 kmh 29.88 in1011.9 mb 0.00 in0.0 mm 0.00 in0.0 mm 0.00 in0.0 mm
12:37 AM 64.6°F18.1°C 59.7°F15.4°C 84% 11.7 mph W18.8 kmh W 14.0 mph22.5 kmh 29.88 in1011.9 mb 0.00 in0.0 mm 0.00 in0.0 mm 0.00 in0.0 mm
12:36 AM 64.6°F18.1°C 59.3°F15.2°C 83% 9.9 mph WSW15.9 kmh WSW 14.0 mph22.5 kmh 29.88 in1011.9 mb 0.00 in0.0 mm 0.00 in0.0 mm 0.00 in0.0 mm
12:35 AM 64.6°F18.1°C 59.3°F15.2°C 83% 12.2 mph W19.6 kmh W 15.0 mph24.1 kmh 29.88 in1011.9 mb 0.00 in0.0 mm 0.00 in0.0 mm 0.00 in0.0 mm
12:34 AM 64.7°F18.2°C 59.4°F15.2°C 83% 12.9 mph WSW20.8 kmh WSW 15.0 mph24.1 kmh 29.88 in1011.9 mb 0.00 in0.0 mm 0.00 in0.0 mm 0.00 in0.0 mm
12:33 AM 64.8°F18.2°C 59.5°F15.3°C 83% 11.7 mph W18.8 kmh W 13.0 mph20.9 kmh 29.88 in1011.9 mb 0.00 in0.0 mm 0.00 in0.0 mm 0.00 in0.0 mm
12:32 AM 64.8°F18.2°C 59.5°F15.3°C 83% 11.8 mph W19.0 kmh W 13.0 mph20.9 kmh 29.88 in1011.9 mb 0.00 in0.0 mm 0.00 in0.0 mm 0.00 in0.0 mm
12:31 AM 64.9°F18.3°C 59.6°F15.3°C 83% 12.4 mph W20.0 kmh W 14.0 mph22.5 kmh 29.88 in1011.9 mb 0.00 in0.0 mm 0.00 in0.0 mm 0.00 in0.0 mm
12:30 AM 64.9°F18.3°C 59.6°F15.3°C 83% 12.1 mph W19.5 kmh W 14.0 mph22.5 kmh 29.88 in1011.9 mb 0.00 in0.0 mm 0.00 in0.0 mm 0.00 in0.0 mm
12:29 AM 64.9°F18.3°C 59.6°F15.3°C 83% 12.0 mph W19.3 kmh W 14.0 mph22.5 kmh 29.88 in1011.9 mb 0.00 in0.0 mm 0.00 in0.0 mm 0.00 in0.0 mm
12:28 AM 64.9°F18.3°C 59.6°F15.3°C 83% 11.4 mph WSW18.3 kmh WSW 14.0 mph22.5 kmh 29.88 in1011.9 mb 0.00 in0.0 mm 0.00 in0.0 mm 0.00 in0.0 mm
12:27 AM 64.9°F18.3°C 59.6°F15.3°C 83% 11.7 mph W18.8 kmh W 15.0 mph24.1 kmh 29.88 in1011.9 mb 0.00 in0.0 mm 0.00 in0.0 mm 0.00 in0.0 mm
12:26 AM 64.9°F18.3°C 59.6°F15.3°C 83% 12.4 mph WSW20.0 kmh WSW 15.0 mph24.1 kmh 29.88 in1011.9 mb 0.00 in0.0 mm 0.00 in0.0 mm 0.00 in0.0 mm
12:25 AM 65.0°F18.3°C 59.7°F15.4°C 83% 13.1 mph W21.1 kmh W 15.0 mph24.1 kmh 29.88 in1011.9 mb 0.00 in0.0 mm 0.00 in0.0 mm 0.00 in0.0 mm
12:24 AM 65.0°F18.3°C 59.7°F15.4°C 83% 11.7 mph W18.8 kmh W 15.0 mph24.1 kmh 29.88 in1011.9 mb 0.00 in0.0 mm 0.00 in0.0 mm 0.00 in0.0 mm
12:23 AM 64.9°F18.3°C 59.6°F15.3°C 83% 13.4 mph W21.6 kmh W 17.0 mph27.4 kmh 29.88 in1011.9 mb 0.00 in0.0 mm 0.00 in0.0 mm 0.00 in0.0 mm
12:22 AM 65.0°F18.3°C 59.7°F15.4°C 83% 14.6 mph W23.5 kmh W 17.0 mph27.4 kmh 29.88 in1011.9 mb 0.00 in0.0 mm 0.00 in0.0 mm 0.00 in0.0 mm
12:21 AM 64.9°F18.3°C 59.6°F15.3°C 83% 13.9 mph W22.4 kmh W 16.0 mph25.7 kmh 29.88 in1011.9 mb 0.00 in0.0 mm 0.00 in0.0 mm 0.00 in0.0 mm
12:20 AM 64.9°F18.3°C 59.6°F15.3°C 83% 14.6 mph WSW23.5 kmh WSW 17.0 mph27.4 kmh 29.88 in1011.9 mb 0.00 in0.0 mm 0.00 in0.0 mm 0.00 in0.0 mm
12:19 AM 65.0°F18.3°C 59.7°F15.4°C 83% 14.3 mph W23.0 kmh W 17.0 mph27.4 kmh 29.88 in1011.9 mb 0.00 in0.0 mm 0.00 in0.0 mm 0.00 in0.0 mm
12:18 AM 65.0°F18.3°C 59.7°F15.4°C 83% 14.5 mph W23.3 kmh W 17.0 mph27.4 kmh 29.88 in1011.9 mb 0.00 in0.0 mm 0.00 in0.0 mm 0.00 in0.0 mm
12:17 AM 65.1°F18.4°C 59.8°F15.4°C 83% 14.5 mph WSW23.3 kmh WSW 17.0 mph27.4 kmh 29.88 in1011.9 mb 0.00 in0.0 mm 0.00 in0.0 mm 0.00 in0.0 mm
12:16 AM 65.1°F18.4°C 60.1°F15.6°C 84% 13.1 mph WSW21.1 kmh WSW 16.0 mph25.7 kmh 29.88 in1011.9 mb 0.00 in0.0 mm 0.00 in0.0 mm 0.00 in0.0 mm
12:15 AM 65.0°F18.3°C 59.7°F15.4°C 83% 12.0 mph W19.3 kmh W 15.0 mph24.1 kmh 29.88 in1011.9 mb 0.00 in0.0 mm 0.00 in0.0 mm 0.00 in0.0 mm
12:14 AM 65.0°F18.3°C 59.7°F15.4°C 83% 13.0 mph WSW20.9 kmh WSW 17.0 mph27.4 kmh 29.88 in1011.9 mb 0.00 in0.0 mm 0.00 in0.0 mm 0.00 in0.0 mm
12:13 AM 65.0°F18.3°C 59.7°F15.4°C 83% 14.6 mph WSW23.5 kmh WSW 17.0 mph27.4 kmh 29.88 in1011.9 mb 0.00 in0.0 mm 0.00 in0.0 mm 0.00 in0.0 mm
12:12 AM 65.0°F18.3°C 59.7°F15.4°C 83% 13.7 mph WSW22.0 kmh WSW 16.0 mph25.7 kmh 29.88 in1011.9 mb 0.00 in0.0 mm 0.00 in0.0 mm 0.00 in0.0 mm
12:11 AM 65.0°F18.3°C 59.7°F15.4°C 83% 12.8 mph WSW20.6 kmh WSW 16.0 mph25.7 kmh 29.88 in1011.9 mb 0.00 in0.0 mm 0.00 in0.0 mm 0.00 in0.0 mm
12:10 AM 65.0°F18.3°C 59.7°F15.4°C 83% 11.1 mph W17.9 kmh W 16.0 mph25.7 kmh 29.88 in1011.9 mb 0.00 in0.0 mm 0.00 in0.0 mm 0.00 in0.0 mm
12:09 AM 65.0°F18.3°C 59.7°F15.4°C 83% 12.5 mph WSW20.1 kmh WSW 16.0 mph25.7 kmh 29.88 in1011.9 mb 0.00 in0.0 mm 0.00 in0.0 mm 0.00 in0.0 mm
12:08 AM 65.1°F18.4°C 59.8°F15.4°C 83% 12.7 mph WSW20.4 kmh WSW 15.0 mph24.1 kmh 29.88 in1011.9 mb 0.00 in0.0 mm 0.00 in0.0 mm 0.00 in0.0 mm
12:07 AM 65.1°F18.4°C 59.8°F15.4°C 83% 11.9 mph WSW19.2 kmh WSW 16.0 mph25.7 kmh 29.88 in1011.9 mb 0.00 in0.0 mm 0.00 in0.0 mm 0.00 in0.0 mm
12:06 AM 65.1°F18.4°C 60.1°F15.6°C 84% 13.9 mph WSW22.4 kmh WSW 16.0 mph25.7 kmh 29.88 in1011.9 mb 0.00 in0.0 mm 0.00 in0.0 mm 0.00 in0.0 mm
12:05 AM 65.1°F18.4°C 60.1°F15.6°C 84% 11.7 mph WSW18.8 kmh WSW 16.0 mph25.7 kmh 29.88 in1011.9 mb 0.00 in0.0 mm 0.00 in0.0 mm 0.00 in0.0 mm
12:04 AM 65.1°F18.4°C 60.1°F15.6°C 84% 12.1 mph WSW19.5 kmh WSW 16.0 mph25.7 kmh 29.88 in1011.9 mb 0.00 in0.0 mm 0.00 in0.0 mm 0.00 in0.0 mm
12:03 AM 65.1°F18.4°C 60.1°F15.6°C 84% 8.9 mph WSW14.3 kmh WSW 12.0 mph19.3 kmh 29.88 in1011.9 mb 0.00 in0.0 mm 0.00 in0.0 mm 0.00 in0.0 mm
12:02 AM 65.0°F18.3°C 59.7°F15.4°C 83% 9.8 mph W15.8 kmh W 11.0 mph17.7 kmh 29.88 in1011.9 mb 0.00 in0.0 mm 0.00 in0.0 mm 0.00 in0.0 mm
12:01 AM 65.0°F18.3°C 59.7°F15.4°C 83% 9.0 mph WSW14.5 kmh WSW 12.0 mph19.3 kmh 29.88 in1011.9 mb 0.00 in0.0 mm 0.00 in0.0 mm 0.00 in0.0 mm
12:00 AM 65.1°F18.4°C 60.1°F15.6°C 84% 11.6 mph WSW18.7 kmh WSW 13.0 mph20.9 kmh 29.88 in1011.9 mb 0.00 in0.0 mm 0.00 in0.0 mm 0.00 in0.0 mm